<?xml version="1.0" encoding="UTF-8" standalone="no" ?>
<gpx xmlns="http://www.topografix.com/GPX/1/1" xmlns:xsi="http://www.w3.org/2001/XMLSchema-instance" xsi:schemaLocation="http://www.topografix.com/GPX/1/1 http://www.topografix.com/GPX/1/1/gpx.xsd" version="1.1" creator="VisuGPX - https://www.visugpx.com">
  <metadata>
    <name>Tour sur la Mandallaz</name>
    <desc><![CDATA[Une après-midi en forêt, avec au détour d'un panorama, le Lac d'Annecy.]]></desc>
  </metadata>
  <trk>
    <name><![CDATA[Tour sur la Mandallaz]]></name>
    <trkseg>
      <trkpt lat="45.9606" lon="6.07306">
        <ele>715.358154</ele>
        <time>2011-09-30T13:59:25Z</time>
      </trkpt>
      <trkpt lat="45.96059" lon="6.07303">
        <ele>715.838867</ele>
        <time>2011-09-30T13:59:47Z</time>
      </trkpt>
      <trkpt lat="45.96056" lon="6.07298">
        <ele>716.31958</ele>
        <time>2011-09-30T13:59:54Z</time>
      </trkpt>
      <trkpt lat="45.96052" lon="6.07292">
        <ele>716.800293</ele>
        <time>2011-09-30T14:00:01Z</time>
      </trkpt>
      <trkpt lat="45.96049" lon="6.07289">
        <ele>716.800293</ele>
        <time>2011-09-30T14:00:09Z</time>
      </trkpt>
      <trkpt lat="45.96047" lon="6.07285">
        <ele>717.761475</ele>
        <time>2011-09-30T14:00:15Z</time>
      </trkpt>
      <trkpt lat="45.96046" lon="6.07281">
        <ele>717.281006</ele>
        <time>2011-09-30T14:00:22Z</time>
      </trkpt>
      <trkpt lat="45.96045" lon="6.07268">
        <ele>717.761475</ele>
        <time>2011-09-30T14:00:30Z</time>
      </trkpt>
      <trkpt lat="45.96042" lon="6.07263">
        <ele>718.7229</ele>
        <time>2011-09-30T14:00:38Z</time>
      </trkpt>
      <trkpt lat="45.9604" lon="6.07259">
        <ele>719.203613</ele>
        <time>2011-09-30T14:00:45Z</time>
      </trkpt>
      <trkpt lat="45.9604" lon="6.0725">
        <ele>720.645508</ele>
        <time>2011-09-30T14:00:54Z</time>
      </trkpt>
      <trkpt lat="45.96041" lon="6.07241">
        <ele>720.645508</ele>
        <time>2011-09-30T14:01:03Z</time>
      </trkpt>
      <trkpt lat="45.96041" lon="6.07232">
        <ele>722.087402</ele>
        <time>2011-09-30T14:01:11Z</time>
      </trkpt>
      <trkpt lat="45.96038" lon="6.07225">
        <ele>723.048828</ele>
        <time>2011-09-30T14:01:19Z</time>
      </trkpt>
      <trkpt lat="45.96032" lon="6.07217">
        <ele>724.490723</ele>
        <time>2011-09-30T14:01:26Z</time>
      </trkpt>
      <trkpt lat="45.96029" lon="6.07209">
        <ele>724.490723</ele>
        <time>2011-09-30T14:01:34Z</time>
      </trkpt>
      <trkpt lat="45.96027" lon="6.07204">
        <ele>725.932617</ele>
        <time>2011-09-30T14:01:40Z</time>
      </trkpt>
      <trkpt lat="45.96023" lon="6.07198">
        <ele>725.932617</ele>
        <time>2011-09-30T14:01:47Z</time>
      </trkpt>
      <trkpt lat="45.96023" lon="6.07192">
        <ele>725.932617</ele>
        <time>2011-09-30T14:01:55Z</time>
      </trkpt>
      <trkpt lat="45.96022" lon="6.07183">
        <ele>725.451904</ele>
        <time>2011-09-30T14:02:04Z</time>
      </trkpt>
      <trkpt lat="45.96019" lon="6.07178">
        <ele>725.932617</ele>
        <time>2011-09-30T14:02:10Z</time>
      </trkpt>
      <trkpt lat="45.96016" lon="6.07174">
        <ele>725.451904</ele>
        <time>2011-09-30T14:02:16Z</time>
      </trkpt>
      <trkpt lat="45.96016" lon="6.07164">
        <ele>725.932617</ele>
        <time>2011-09-30T14:02:24Z</time>
      </trkpt>
      <trkpt lat="45.9602" lon="6.07145">
        <ele>726.894043</ele>
        <time>2011-09-30T14:02:41Z</time>
      </trkpt>
      <trkpt lat="45.96023" lon="6.07137">
        <ele>728.335938</ele>
        <time>2011-09-30T14:02:50Z</time>
      </trkpt>
      <trkpt lat="45.96025" lon="6.07121">
        <ele>728.335938</ele>
        <time>2011-09-30T14:03:03Z</time>
      </trkpt>
      <trkpt lat="45.96024" lon="6.07111">
        <ele>729.297119</ele>
        <time>2011-09-30T14:03:12Z</time>
      </trkpt>
      <trkpt lat="45.96021" lon="6.07101">
        <ele>729.777832</ele>
        <time>2011-09-30T14:03:20Z</time>
      </trkpt>
      <trkpt lat="45.96019" lon="6.07091">
        <ele>729.777832</ele>
        <time>2011-09-30T14:03:28Z</time>
      </trkpt>
      <trkpt lat="45.96018" lon="6.07082">
        <ele>729.777832</ele>
        <time>2011-09-30T14:03:36Z</time>
      </trkpt>
      <trkpt lat="45.96013" lon="6.07074">
        <ele>729.777832</ele>
        <time>2011-09-30T14:03:43Z</time>
      </trkpt>
      <trkpt lat="45.96008" lon="6.07066">
        <ele>730.739258</ele>
        <time>2011-09-30T14:03:50Z</time>
      </trkpt>
      <trkpt lat="45.96006" lon="6.07061">
        <ele>730.258545</ele>
        <time>2011-09-30T14:03:58Z</time>
      </trkpt>
      <trkpt lat="45.96003" lon="6.07056">
        <ele>730.739258</ele>
        <time>2011-09-30T14:04:04Z</time>
      </trkpt>
      <trkpt lat="45.95999" lon="6.0705">
        <ele>731.219971</ele>
        <time>2011-09-30T14:04:11Z</time>
      </trkpt>
      <trkpt lat="45.95997" lon="6.07045">
        <ele>731.700439</ele>
        <time>2011-09-30T14:04:17Z</time>
      </trkpt>
      <trkpt lat="45.95994" lon="6.07036">
        <ele>732.181396</ele>
        <time>2011-09-30T14:04:25Z</time>
      </trkpt>
      <trkpt lat="45.95992" lon="6.07028">
        <ele>732.181396</ele>
        <time>2011-09-30T14:04:31Z</time>
      </trkpt>
      <trkpt lat="45.95984" lon="6.07019">
        <ele>731.700439</ele>
        <time>2011-09-30T14:04:39Z</time>
      </trkpt>
      <trkpt lat="45.95984" lon="6.07005">
        <ele>733.142578</ele>
        <time>2011-09-30T14:04:54Z</time>
      </trkpt>
      <trkpt lat="45.95982" lon="6.07">
        <ele>733.142578</ele>
        <time>2011-09-30T14:04:59Z</time>
      </trkpt>
      <trkpt lat="45.9598" lon="6.06994">
        <ele>733.623291</ele>
        <time>2011-09-30T14:05:07Z</time>
      </trkpt>
      <trkpt lat="45.9598" lon="6.06986">
        <ele>734.584717</ele>
        <time>2011-09-30T14:05:14Z</time>
      </trkpt>
      <trkpt lat="45.95978" lon="6.06974">
        <ele>734.584717</ele>
        <time>2011-09-30T14:05:24Z</time>
      </trkpt>
      <trkpt lat="45.95975" lon="6.06965">
        <ele>735.545898</ele>
        <time>2011-09-30T14:05:32Z</time>
      </trkpt>
      <trkpt lat="45.95972" lon="6.06945">
        <ele>736.987793</ele>
        <time>2011-09-30T14:05:49Z</time>
      </trkpt>
      <trkpt lat="45.95972" lon="6.06937">
        <ele>737.468506</ele>
        <time>2011-09-30T14:05:55Z</time>
      </trkpt>
      <trkpt lat="45.9597" lon="6.06927">
        <ele>738.429932</ele>
        <time>2011-09-30T14:06:03Z</time>
      </trkpt>
      <trkpt lat="45.95967" lon="6.06921">
        <ele>738.429932</ele>
        <time>2011-09-30T14:06:09Z</time>
      </trkpt>
      <trkpt lat="45.95964" lon="6.06916">
        <ele>738.910645</ele>
        <time>2011-09-30T14:06:15Z</time>
      </trkpt>
      <trkpt lat="45.95961" lon="6.06909">
        <ele>740.352539</ele>
        <time>2011-09-30T14:06:23Z</time>
      </trkpt>
      <trkpt lat="45.95962" lon="6.06901">
        <ele>740.833008</ele>
        <time>2011-09-30T14:06:30Z</time>
      </trkpt>
      <trkpt lat="45.95959" lon="6.06893">
        <ele>741.313721</ele>
        <time>2011-09-30T14:06:39Z</time>
      </trkpt>
      <trkpt lat="45.95957" lon="6.06877">
        <ele>742.275146</ele>
        <time>2011-09-30T14:06:50Z</time>
      </trkpt>
      <trkpt lat="45.95955" lon="6.06873">
        <ele>741.794434</ele>
        <time>2011-09-30T14:06:55Z</time>
      </trkpt>
      <trkpt lat="45.95953" lon="6.06866">
        <ele>742.275146</ele>
        <time>2011-09-30T14:07:03Z</time>
      </trkpt>
      <trkpt lat="45.95951" lon="6.06859">
        <ele>742.755859</ele>
        <time>2011-09-30T14:07:11Z</time>
      </trkpt>
      <trkpt lat="45.95945" lon="6.06847">
        <ele>742.755859</ele>
        <time>2011-09-30T14:07:24Z</time>
      </trkpt>
      <trkpt lat="45.95943" lon="6.06843">
        <ele>743.236328</ele>
        <time>2011-09-30T14:07:29Z</time>
      </trkpt>
      <trkpt lat="45.9594" lon="6.06836">
        <ele>742.755859</ele>
        <time>2011-09-30T14:07:34Z</time>
      </trkpt>
      <trkpt lat="45.95939" lon="6.06823">
        <ele>742.755859</ele>
        <time>2011-09-30T14:07:42Z</time>
      </trkpt>
      <trkpt lat="45.95937" lon="6.06813">
        <ele>742.275146</ele>
        <time>2011-09-30T14:07:51Z</time>
      </trkpt>
      <trkpt lat="45.95935" lon="6.06801">
        <ele>742.275146</ele>
        <time>2011-09-30T14:07:59Z</time>
      </trkpt>
      <trkpt lat="45.95933" lon="6.06791">
        <ele>741.794434</ele>
        <time>2011-09-30T14:08:07Z</time>
      </trkpt>
      <trkpt lat="45.95928" lon="6.06784">
        <ele>741.313721</ele>
        <time>2011-09-30T14:08:15Z</time>
      </trkpt>
      <trkpt lat="45.95923" lon="6.06782">
        <ele>740.833008</ele>
        <time>2011-09-30T14:08:21Z</time>
      </trkpt>
      <trkpt lat="45.9592" lon="6.06774">
        <ele>740.833008</ele>
        <time>2011-09-30T14:08:27Z</time>
      </trkpt>
      <trkpt lat="45.95921" lon="6.06764">
        <ele>740.833008</ele>
        <time>2011-09-30T14:08:33Z</time>
      </trkpt>
      <trkpt lat="45.95916" lon="6.06755">
        <ele>740.833008</ele>
        <time>2011-09-30T14:08:40Z</time>
      </trkpt>
      <trkpt lat="45.95911" lon="6.06742">
        <ele>740.352539</ele>
        <time>2011-09-30T14:08:48Z</time>
      </trkpt>
      <trkpt lat="45.95904" lon="6.06734">
        <ele>740.352539</ele>
        <time>2011-09-30T14:08:55Z</time>
      </trkpt>
      <trkpt lat="45.95889" lon="6.06731">
        <ele>740.352539</ele>
        <time>2011-09-30T14:09:02Z</time>
      </trkpt>
      <trkpt lat="45.95881" lon="6.06729">
        <ele>739.871826</ele>
        <time>2011-09-30T14:09:10Z</time>
      </trkpt>
      <trkpt lat="45.95873" lon="6.06728">
        <ele>740.833008</ele>
        <time>2011-09-30T14:09:19Z</time>
      </trkpt>
      <trkpt lat="45.95867" lon="6.06733">
        <ele>740.352539</ele>
        <time>2011-09-30T14:09:26Z</time>
      </trkpt>
      <trkpt lat="45.95859" lon="6.06738">
        <ele>739.871826</ele>
        <time>2011-09-30T14:09:34Z</time>
      </trkpt>
      <trkpt lat="45.95853" lon="6.06739">
        <ele>739.391113</ele>
        <time>2011-09-30T14:09:44Z</time>
      </trkpt>
      <trkpt lat="45.95845" lon="6.06739">
        <ele>739.391113</ele>
        <time>2011-09-30T14:09:52Z</time>
      </trkpt>
      <trkpt lat="45.95841" lon="6.06739">
        <ele>739.871826</ele>
        <time>2011-09-30T14:09:57Z</time>
      </trkpt>
      <trkpt lat="45.95832" lon="6.06736">
        <ele>739.871826</ele>
        <time>2011-09-30T14:10:07Z</time>
      </trkpt>
      <trkpt lat="45.95825" lon="6.06732">
        <ele>738.429932</ele>
        <time>2011-09-30T14:10:14Z</time>
      </trkpt>
      <trkpt lat="45.95819" lon="6.06728">
        <ele>737.949219</ele>
        <time>2011-09-30T14:10:21Z</time>
      </trkpt>
      <trkpt lat="45.95812" lon="6.06727">
        <ele>737.468506</ele>
        <time>2011-09-30T14:10:29Z</time>
      </trkpt>
      <trkpt lat="45.95805" lon="6.06725">
        <ele>737.468506</ele>
        <time>2011-09-30T14:10:38Z</time>
      </trkpt>
      <trkpt lat="45.95799" lon="6.06722">
        <ele>737.468506</ele>
        <time>2011-09-30T14:10:45Z</time>
      </trkpt>
      <trkpt lat="45.95791" lon="6.0672">
        <ele>737.468506</ele>
        <time>2011-09-30T14:10:52Z</time>
      </trkpt>
      <trkpt lat="45.95786" lon="6.06714">
        <ele>737.468506</ele>
        <time>2011-09-30T14:11:01Z</time>
      </trkpt>
      <trkpt lat="45.95782" lon="6.06707">
        <ele>737.468506</ele>
        <time>2011-09-30T14:11:08Z</time>
      </trkpt>
      <trkpt lat="45.95779" lon="6.06697">
        <ele>737.468506</ele>
        <time>2011-09-30T14:11:17Z</time>
      </trkpt>
      <trkpt lat="45.95779" lon="6.06687">
        <ele>737.949219</ele>
        <time>2011-09-30T14:11:24Z</time>
      </trkpt>
      <trkpt lat="45.95785" lon="6.06662">
        <ele>738.429932</ele>
        <time>2011-09-30T14:11:48Z</time>
      </trkpt>
      <trkpt lat="45.95784" lon="6.06646">
        <ele>739.391113</ele>
        <time>2011-09-30T14:12:03Z</time>
      </trkpt>
      <trkpt lat="45.95783" lon="6.06638">
        <ele>739.871826</ele>
        <time>2011-09-30T14:12:08Z</time>
      </trkpt>
      <trkpt lat="45.95785" lon="6.06629">
        <ele>740.352539</ele>
        <time>2011-09-30T14:12:14Z</time>
      </trkpt>
      <trkpt lat="45.95788" lon="6.06619">
        <ele>740.833008</ele>
        <time>2011-09-30T14:12:22Z</time>
      </trkpt>
      <trkpt lat="45.95785" lon="6.06605">
        <ele>740.352539</ele>
        <time>2011-09-30T14:12:35Z</time>
      </trkpt>
      <trkpt lat="45.95784" lon="6.06597">
        <ele>740.833008</ele>
        <time>2011-09-30T14:13:05Z</time>
      </trkpt>
      <trkpt lat="45.95781" lon="6.06594">
        <ele>740.352539</ele>
        <time>2011-09-30T14:13:16Z</time>
      </trkpt>
      <trkpt lat="45.95783" lon="6.06592">
        <ele>740.833008</ele>
        <time>2011-09-30T14:13:27Z</time>
      </trkpt>
      <trkpt lat="45.95787" lon="6.06587">
        <ele>740.833008</ele>
        <time>2011-09-30T14:13:36Z</time>
      </trkpt>
      <trkpt lat="45.95788" lon="6.0658">
        <ele>741.313721</ele>
        <time>2011-09-30T14:13:45Z</time>
      </trkpt>
      <trkpt lat="45.95787" lon="6.0657">
        <ele>741.313721</ele>
        <time>2011-09-30T14:13:53Z</time>
      </trkpt>
      <trkpt lat="45.95787" lon="6.06559">
        <ele>741.794434</ele>
        <time>2011-09-30T14:14:02Z</time>
      </trkpt>
      <trkpt lat="45.95784" lon="6.06551">
        <ele>741.794434</ele>
        <time>2011-09-30T14:14:09Z</time>
      </trkpt>
      <trkpt lat="45.95783" lon="6.06543">
        <ele>741.794434</ele>
        <time>2011-09-30T14:14:16Z</time>
      </trkpt>
      <trkpt lat="45.95784" lon="6.06538">
        <ele>742.275146</ele>
        <time>2011-09-30T14:14:25Z</time>
      </trkpt>
      <trkpt lat="45.95795" lon="6.06525">
        <ele>744.197754</ele>
        <time>2011-09-30T14:14:44Z</time>
      </trkpt>
      <trkpt lat="45.95798" lon="6.0652">
        <ele>744.197754</ele>
        <time>2011-09-30T14:14:52Z</time>
      </trkpt>
      <trkpt lat="45.958" lon="6.0651">
        <ele>744.197754</ele>
        <time>2011-09-30T14:15:02Z</time>
      </trkpt>
      <trkpt lat="45.95803" lon="6.065">
        <ele>744.678223</ele>
        <time>2011-09-30T14:15:10Z</time>
      </trkpt>
      <trkpt lat="45.95804" lon="6.06486">
        <ele>745.158936</ele>
        <time>2011-09-30T14:15:19Z</time>
      </trkpt>
      <trkpt lat="45.95805" lon="6.06477">
        <ele>745.158936</ele>
        <time>2011-09-30T14:15:27Z</time>
      </trkpt>
      <trkpt lat="45.95806" lon="6.06469">
        <ele>745.639648</ele>
        <time>2011-09-30T14:15:34Z</time>
      </trkpt>
      <trkpt lat="45.95805" lon="6.06462">
        <ele>745.639648</ele>
        <time>2011-09-30T14:15:40Z</time>
      </trkpt>
      <trkpt lat="45.95804" lon="6.06453">
        <ele>745.639648</ele>
        <time>2011-09-30T14:15:46Z</time>
      </trkpt>
      <trkpt lat="45.95803" lon="6.06439">
        <ele>745.158936</ele>
        <time>2011-09-30T14:15:53Z</time>
      </trkpt>
      <trkpt lat="45.95802" lon="6.06429">
        <ele>745.158936</ele>
        <time>2011-09-30T14:16:00Z</time>
      </trkpt>
      <trkpt lat="45.95802" lon="6.06416">
        <ele>744.678223</ele>
        <time>2011-09-30T14:16:09Z</time>
      </trkpt>
      <trkpt lat="45.95802" lon="6.0641">
        <ele>744.678223</ele>
        <time>2011-09-30T14:16:16Z</time>
      </trkpt>
      <trkpt lat="45.95798" lon="6.06399">
        <ele>744.678223</ele>
        <time>2011-09-30T14:16:26Z</time>
      </trkpt>
      <trkpt lat="45.95795" lon="6.0639">
        <ele>745.158936</ele>
        <time>2011-09-30T14:16:34Z</time>
      </trkpt>
      <trkpt lat="45.95794" lon="6.06379">
        <ele>746.120361</ele>
        <time>2011-09-30T14:16:43Z</time>
      </trkpt>
      <trkpt lat="45.95794" lon="6.0637">
        <ele>746.120361</ele>
        <time>2011-09-30T14:16:50Z</time>
      </trkpt>
      <trkpt lat="45.95796" lon="6.06356">
        <ele>746.601074</ele>
        <time>2011-09-30T14:16:59Z</time>
      </trkpt>
      <trkpt lat="45.95796" lon="6.06344">
        <ele>746.120361</ele>
        <time>2011-09-30T14:17:07Z</time>
      </trkpt>
      <trkpt lat="45.95792" lon="6.06337">
        <ele>746.601074</ele>
        <time>2011-09-30T14:17:14Z</time>
      </trkpt>
      <trkpt lat="45.95789" lon="6.06329">
        <ele>747.081543</ele>
        <time>2011-09-30T14:17:21Z</time>
      </trkpt>
      <trkpt lat="45.95788" lon="6.06318">
        <ele>748.043213</ele>
        <time>2011-09-30T14:17:31Z</time>
      </trkpt>
      <trkpt lat="45.95785" lon="6.06308">
        <ele>748.043213</ele>
        <time>2011-09-30T14:17:39Z</time>
      </trkpt>
      <trkpt lat="45.95782" lon="6.06301">
        <ele>749.004395</ele>
        <time>2011-09-30T14:17:45Z</time>
      </trkpt>
      <trkpt lat="45.95776" lon="6.06289">
        <ele>749.485107</ele>
        <time>2011-09-30T14:17:57Z</time>
      </trkpt>
      <trkpt lat="45.95769" lon="6.06284">
        <ele>749.96582</ele>
        <time>2011-09-30T14:18:04Z</time>
      </trkpt>
      <trkpt lat="45.95764" lon="6.06281">
        <ele>749.96582</ele>
        <time>2011-09-30T14:18:10Z</time>
      </trkpt>
      <trkpt lat="45.95759" lon="6.0628">
        <ele>750.927002</ele>
        <time>2011-09-30T14:18:17Z</time>
      </trkpt>
      <trkpt lat="45.9575" lon="6.06278">
        <ele>749.485107</ele>
        <time>2011-09-30T14:18:25Z</time>
      </trkpt>
      <trkpt lat="45.95744" lon="6.06274">
        <ele>749.004395</ele>
        <time>2011-09-30T14:18:32Z</time>
      </trkpt>
      <trkpt lat="45.95737" lon="6.06269">
        <ele>748.043213</ele>
        <time>2011-09-30T14:18:41Z</time>
      </trkpt>
      <trkpt lat="45.95732" lon="6.06265">
        <ele>748.043213</ele>
        <time>2011-09-30T14:18:47Z</time>
      </trkpt>
      <trkpt lat="45.95727" lon="6.0626">
        <ele>747.562256</ele>
        <time>2011-09-30T14:18:53Z</time>
      </trkpt>
      <trkpt lat="45.95718" lon="6.06253">
        <ele>748.043213</ele>
        <time>2011-09-30T14:19:03Z</time>
      </trkpt>
      <trkpt lat="45.95714" lon="6.06245">
        <ele>747.562256</ele>
        <time>2011-09-30T14:19:11Z</time>
      </trkpt>
      <trkpt lat="45.9571" lon="6.0624">
        <ele>747.562256</ele>
        <time>2011-09-30T14:19:17Z</time>
      </trkpt>
      <trkpt lat="45.95705" lon="6.06234">
        <ele>747.562256</ele>
        <time>2011-09-30T14:19:25Z</time>
      </trkpt>
      <trkpt lat="45.957" lon="6.06228">
        <ele>747.081543</ele>
        <time>2011-09-30T14:19:31Z</time>
      </trkpt>
      <trkpt lat="45.95695" lon="6.0622">
        <ele>747.562256</ele>
        <time>2011-09-30T14:19:39Z</time>
      </trkpt>
      <trkpt lat="45.9569" lon="6.06212">
        <ele>747.562256</ele>
        <time>2011-09-30T14:19:48Z</time>
      </trkpt>
      <trkpt lat="45.95679" lon="6.06205">
        <ele>747.562256</ele>
        <time>2011-09-30T14:19:57Z</time>
      </trkpt>
      <trkpt lat="45.9567" lon="6.06199">
        <ele>747.562256</ele>
        <time>2011-09-30T14:20:07Z</time>
      </trkpt>
      <trkpt lat="45.95661" lon="6.06197">
        <ele>747.562256</ele>
        <time>2011-09-30T14:20:16Z</time>
      </trkpt>
      <trkpt lat="45.95654" lon="6.06193">
        <ele>747.081543</ele>
        <time>2011-09-30T14:20:23Z</time>
      </trkpt>
      <trkpt lat="45.95649" lon="6.06189">
        <ele>747.562256</ele>
        <time>2011-09-30T14:20:30Z</time>
      </trkpt>
      <trkpt lat="45.95643" lon="6.06188">
        <ele>747.081543</ele>
        <time>2011-09-30T14:20:38Z</time>
      </trkpt>
      <trkpt lat="45.95635" lon="6.0619">
        <ele>747.081543</ele>
        <time>2011-09-30T14:20:48Z</time>
      </trkpt>
      <trkpt lat="45.95628" lon="6.06186">
        <ele>746.120361</ele>
        <time>2011-09-30T14:20:55Z</time>
      </trkpt>
      <trkpt lat="45.95619" lon="6.06178">
        <ele>745.639648</ele>
        <time>2011-09-30T14:21:04Z</time>
      </trkpt>
      <trkpt lat="45.95612" lon="6.06175">
        <ele>745.639648</ele>
        <time>2011-09-30T14:21:12Z</time>
      </trkpt>
      <trkpt lat="45.95603" lon="6.06185">
        <ele>745.158936</ele>
        <time>2011-09-30T14:22:51Z</time>
      </trkpt>
      <trkpt lat="45.956" lon="6.06185">
        <ele>745.158936</ele>
        <time>2011-09-30T14:23:01Z</time>
      </trkpt>
      <trkpt lat="45.95598" lon="6.06182">
        <ele>744.678223</ele>
        <time>2011-09-30T14:23:19Z</time>
      </trkpt>
      <trkpt lat="45.9559" lon="6.06182">
        <ele>744.678223</ele>
        <time>2011-09-30T14:23:29Z</time>
      </trkpt>
      <trkpt lat="45.95582" lon="6.06181">
        <ele>744.678223</ele>
        <time>2011-09-30T14:23:39Z</time>
      </trkpt>
      <trkpt lat="45.95579" lon="6.06181">
        <ele>745.158936</ele>
        <time>2011-09-30T14:23:41Z</time>
      </trkpt>
      <trkpt lat="45.95571" lon="6.06181">
        <ele>745.639648</ele>
        <time>2011-09-30T14:23:51Z</time>
      </trkpt>
      <trkpt lat="45.95566" lon="6.06181">
        <ele>746.120361</ele>
        <time>2011-09-30T14:23:58Z</time>
      </trkpt>
      <trkpt lat="45.95563" lon="6.06181">
        <ele>747.562256</ele>
        <time>2011-09-30T14:24:04Z</time>
      </trkpt>
      <trkpt lat="45.95558" lon="6.0618">
        <ele>748.043213</ele>
        <time>2011-09-30T14:24:12Z</time>
      </trkpt>
      <trkpt lat="45.95552" lon="6.06184">
        <ele>748.043213</ele>
        <time>2011-09-30T14:24:22Z</time>
      </trkpt>
      <trkpt lat="45.95548" lon="6.0619">
        <ele>747.562256</ele>
        <time>2011-09-30T14:24:31Z</time>
      </trkpt>
      <trkpt lat="45.95543" lon="6.06195">
        <ele>747.562256</ele>
        <time>2011-09-30T14:24:37Z</time>
      </trkpt>
      <trkpt lat="45.95539" lon="6.062">
        <ele>747.562256</ele>
        <time>2011-09-30T14:24:45Z</time>
      </trkpt>
      <trkpt lat="45.95533" lon="6.06203">
        <ele>747.562256</ele>
        <time>2011-09-30T14:24:52Z</time>
      </trkpt>
      <trkpt lat="45.95528" lon="6.06207">
        <ele>747.562256</ele>
        <time>2011-09-30T14:25:00Z</time>
      </trkpt>
      <trkpt lat="45.95522" lon="6.06211">
        <ele>748.043213</ele>
        <time>2011-09-30T14:25:10Z</time>
      </trkpt>
      <trkpt lat="45.95516" lon="6.06216">
        <ele>747.562256</ele>
        <time>2011-09-30T14:25:19Z</time>
      </trkpt>
      <trkpt lat="45.95519" lon="6.06227">
        <ele>747.562256</ele>
        <time>2011-09-30T14:25:34Z</time>
      </trkpt>
      <trkpt lat="45.95515" lon="6.06241">
        <ele>747.562256</ele>
        <time>2011-09-30T14:25:55Z</time>
      </trkpt>
      <trkpt lat="45.9551" lon="6.06239">
        <ele>747.562256</ele>
        <time>2011-09-30T14:26:16Z</time>
      </trkpt>
      <trkpt lat="45.95506" lon="6.06238">
        <ele>748.043213</ele>
        <time>2011-09-30T14:26:21Z</time>
      </trkpt>
      <trkpt lat="45.95498" lon="6.0624">
        <ele>748.523682</ele>
        <time>2011-09-30T14:26:30Z</time>
      </trkpt>
      <trkpt lat="45.95492" lon="6.06249">
        <ele>748.043213</ele>
        <time>2011-09-30T14:26:39Z</time>
      </trkpt>
      <trkpt lat="45.95488" lon="6.06257">
        <ele>748.043213</ele>
        <time>2011-09-30T14:26:47Z</time>
      </trkpt>
      <trkpt lat="45.95484" lon="6.06263">
        <ele>748.523682</ele>
        <time>2011-09-30T14:26:56Z</time>
      </trkpt>
      <trkpt lat="45.95479" lon="6.0627">
        <ele>749.485107</ele>
        <time>2011-09-30T14:27:05Z</time>
      </trkpt>
      <trkpt lat="45.95476" lon="6.06274">
        <ele>751.407715</ele>
        <time>2011-09-30T14:27:13Z</time>
      </trkpt>
      <trkpt lat="45.95473" lon="6.06278">
        <ele>751.888428</ele>
        <time>2011-09-30T14:27:21Z</time>
      </trkpt>
      <trkpt lat="45.95468" lon="6.06283">
        <ele>753.330322</ele>
        <time>2011-09-30T14:27:32Z</time>
      </trkpt>
      <trkpt lat="45.95465" lon="6.06287">
        <ele>754.772217</ele>
        <time>2011-09-30T14:27:41Z</time>
      </trkpt>
      <trkpt lat="45.95459" lon="6.06293">
        <ele>755.733643</ele>
        <time>2011-09-30T14:27:50Z</time>
      </trkpt>
      <trkpt lat="45.95456" lon="6.063">
        <ele>756.214111</ele>
        <time>2011-09-30T14:27:59Z</time>
      </trkpt>
      <trkpt lat="45.95452" lon="6.06307">
        <ele>756.694824</ele>
        <time>2011-09-30T14:28:08Z</time>
      </trkpt>
      <trkpt lat="45.95446" lon="6.06312">
        <ele>757.175537</ele>
        <time>2011-09-30T14:28:17Z</time>
      </trkpt>
      <trkpt lat="45.95441" lon="6.06316">
        <ele>759.098145</ele>
        <time>2011-09-30T14:28:27Z</time>
      </trkpt>
      <trkpt lat="45.95437" lon="6.06319">
        <ele>759.578857</ele>
        <time>2011-09-30T14:28:36Z</time>
      </trkpt>
      <trkpt lat="45.95429" lon="6.06324">
        <ele>761.020752</ele>
        <time>2011-09-30T14:28:45Z</time>
      </trkpt>
      <trkpt lat="45.95425" lon="6.06329">
        <ele>761.982178</ele>
        <time>2011-09-30T14:28:53Z</time>
      </trkpt>
      <trkpt lat="45.95421" lon="6.06335">
        <ele>762.943359</ele>
        <time>2011-09-30T14:29:03Z</time>
      </trkpt>
      <trkpt lat="45.95416" lon="6.06343">
        <ele>763.424072</ele>
        <time>2011-09-30T14:29:13Z</time>
      </trkpt>
      <trkpt lat="45.95414" lon="6.06348">
        <ele>763.904541</ele>
        <time>2011-09-30T14:29:22Z</time>
      </trkpt>
      <trkpt lat="45.95412" lon="6.06353">
        <ele>765.346924</ele>
        <time>2011-09-30T14:29:32Z</time>
      </trkpt>
      <trkpt lat="45.9541" lon="6.06359">
        <ele>766.308105</ele>
        <time>2011-09-30T14:29:41Z</time>
      </trkpt>
      <trkpt lat="45.95406" lon="6.06365">
        <ele>767.75</ele>
        <time>2011-09-30T14:29:52Z</time>
      </trkpt>
      <trkpt lat="45.95401" lon="6.06368">
        <ele>769.672852</ele>
        <time>2011-09-30T14:30:03Z</time>
      </trkpt>
      <trkpt lat="45.95398" lon="6.06369">
        <ele>770.634033</ele>
        <time>2011-09-30T14:30:12Z</time>
      </trkpt>
      <trkpt lat="45.95393" lon="6.06371">
        <ele>771.595215</ele>
        <time>2011-09-30T14:30:21Z</time>
      </trkpt>
      <trkpt lat="45.95389" lon="6.06374">
        <ele>772.556641</ele>
        <time>2011-09-30T14:30:32Z</time>
      </trkpt>
      <trkpt lat="45.95384" lon="6.06376">
        <ele>773.998535</ele>
        <time>2011-09-30T14:30:42Z</time>
      </trkpt>
      <trkpt lat="45.95379" lon="6.06376">
        <ele>774.959961</ele>
        <time>2011-09-30T14:30:53Z</time>
      </trkpt>
      <trkpt lat="45.95374" lon="6.06376">
        <ele>776.882568</ele>
        <time>2011-09-30T14:31:04Z</time>
      </trkpt>
      <trkpt lat="45.95369" lon="6.06376">
        <ele>778.805176</ele>
        <time>2011-09-30T14:31:15Z</time>
      </trkpt>
      <trkpt lat="45.95363" lon="6.06377">
        <ele>779.285645</ele>
        <time>2011-09-30T14:31:25Z</time>
      </trkpt>
      <trkpt lat="45.95359" lon="6.06376">
        <ele>779.766357</ele>
        <time>2011-09-30T14:31:33Z</time>
      </trkpt>
      <trkpt lat="45.95351" lon="6.06374">
        <ele>781.20874</ele>
        <time>2011-09-30T14:31:45Z</time>
      </trkpt>
      <trkpt lat="45.95345" lon="6.06373">
        <ele>782.650635</ele>
        <time>2011-09-30T14:31:56Z</time>
      </trkpt>
      <trkpt lat="45.95341" lon="6.06371">
        <ele>784.092529</ele>
        <time>2011-09-30T14:32:07Z</time>
      </trkpt>
      <trkpt lat="45.95336" lon="6.0637">
        <ele>785.053955</ele>
        <time>2011-09-30T14:32:15Z</time>
      </trkpt>
      <trkpt lat="45.95331" lon="6.0637">
        <ele>786.49585</ele>
        <time>2011-09-30T14:32:24Z</time>
      </trkpt>
      <trkpt lat="45.95328" lon="6.06368">
        <ele>787.937744</ele>
        <time>2011-09-30T14:32:32Z</time>
      </trkpt>
      <trkpt lat="45.95323" lon="6.06365">
        <ele>789.379639</ele>
        <time>2011-09-30T14:32:42Z</time>
      </trkpt>
      <trkpt lat="45.95319" lon="6.06361">
        <ele>790.821533</ele>
        <time>2011-09-30T14:32:53Z</time>
      </trkpt>
      <trkpt lat="45.95316" lon="6.06356">
        <ele>790.821533</ele>
        <time>2011-09-30T14:33:02Z</time>
      </trkpt>
      <trkpt lat="45.95312" lon="6.06352">
        <ele>790.821533</ele>
        <time>2011-09-30T14:33:10Z</time>
      </trkpt>
      <trkpt lat="45.95307" lon="6.06346">
        <ele>792.263672</ele>
        <time>2011-09-30T14:33:20Z</time>
      </trkpt>
      <trkpt lat="45.95303" lon="6.06342">
        <ele>793.224854</ele>
        <time>2011-09-30T14:33:29Z</time>
      </trkpt>
      <trkpt lat="45.95298" lon="6.06337">
        <ele>793.705566</ele>
        <time>2011-09-30T14:33:37Z</time>
      </trkpt>
      <trkpt lat="45.95293" lon="6.06333">
        <ele>793.705566</ele>
        <time>2011-09-30T14:33:45Z</time>
      </trkpt>
      <trkpt lat="45.95287" lon="6.06329">
        <ele>794.186279</ele>
        <time>2011-09-30T14:33:54Z</time>
      </trkpt>
      <trkpt lat="45.95276" lon="6.06321">
        <ele>793.705566</ele>
        <time>2011-09-30T14:39:26Z</time>
      </trkpt>
      <trkpt lat="45.95271" lon="6.06317">
        <ele>793.705566</ele>
        <time>2011-09-30T14:39:33Z</time>
      </trkpt>
      <trkpt lat="45.95267" lon="6.06315">
        <ele>794.666748</ele>
        <time>2011-09-30T14:39:40Z</time>
      </trkpt>
      <trkpt lat="45.95262" lon="6.0631">
        <ele>794.186279</ele>
        <time>2011-09-30T14:39:48Z</time>
      </trkpt>
      <trkpt lat="45.95257" lon="6.06305">
        <ele>795.147461</ele>
        <time>2011-09-30T14:39:55Z</time>
      </trkpt>
      <trkpt lat="45.95252" lon="6.06298">
        <ele>796.589844</ele>
        <time>2011-09-30T14:40:05Z</time>
      </trkpt>
      <trkpt lat="45.9525" lon="6.06293">
        <ele>798.512207</ele>
        <time>2011-09-30T14:40:13Z</time>
      </trkpt>
      <trkpt lat="45.9525" lon="6.06288">
        <ele>799.473633</ele>
        <time>2011-09-30T14:40:23Z</time>
      </trkpt>
      <trkpt lat="45.95252" lon="6.06287">
        <ele>800.915527</ele>
        <time>2011-09-30T14:40:32Z</time>
      </trkpt>
      <trkpt lat="45.95255" lon="6.06287">
        <ele>801.876953</ele>
        <time>2011-09-30T14:40:42Z</time>
      </trkpt>
      <trkpt lat="45.95258" lon="6.06283">
        <ele>802.838135</ele>
        <time>2011-09-30T14:40:51Z</time>
      </trkpt>
      <trkpt lat="45.95262" lon="6.06279">
        <ele>803.318848</ele>
        <time>2011-09-30T14:40:58Z</time>
      </trkpt>
      <trkpt lat="45.95267" lon="6.06276">
        <ele>804.280273</ele>
        <time>2011-09-30T14:41:08Z</time>
      </trkpt>
      <trkpt lat="45.95271" lon="6.06276">
        <ele>804.280273</ele>
        <time>2011-09-30T14:41:15Z</time>
      </trkpt>
      <trkpt lat="45.95275" lon="6.06277">
        <ele>804.760742</ele>
        <time>2011-09-30T14:41:22Z</time>
      </trkpt>
      <trkpt lat="45.95278" lon="6.06274">
        <ele>805.241455</ele>
        <time>2011-09-30T14:41:31Z</time>
      </trkpt>
      <trkpt lat="45.95284" lon="6.06269">
        <ele>805.722168</ele>
        <time>2011-09-30T14:41:41Z</time>
      </trkpt>
      <trkpt lat="45.95288" lon="6.06263">
        <ele>806.202637</ele>
        <time>2011-09-30T14:41:48Z</time>
      </trkpt>
      <trkpt lat="45.95293" lon="6.06258">
        <ele>806.68335</ele>
        <time>2011-09-30T14:41:57Z</time>
      </trkpt>
      <trkpt lat="45.95296" lon="6.06252">
        <ele>807.164063</ele>
        <time>2011-09-30T14:42:07Z</time>
      </trkpt>
      <trkpt lat="45.95301" lon="6.06245">
        <ele>807.644775</ele>
        <time>2011-09-30T14:42:18Z</time>
      </trkpt>
      <trkpt lat="45.95305" lon="6.06238">
        <ele>807.644775</ele>
        <time>2011-09-30T14:42:29Z</time>
      </trkpt>
      <trkpt lat="45.95309" lon="6.06234">
        <ele>808.605957</ele>
        <time>2011-09-30T14:42:36Z</time>
      </trkpt>
      <trkpt lat="45.95312" lon="6.0623">
        <ele>810.047852</ele>
        <time>2011-09-30T14:42:45Z</time>
      </trkpt>
      <trkpt lat="45.95315" lon="6.06227">
        <ele>811.009277</ele>
        <time>2011-09-30T14:42:51Z</time>
      </trkpt>
      <trkpt lat="45.95318" lon="6.06217">
        <ele>812.932129</ele>
        <time>2011-09-30T14:43:03Z</time>
      </trkpt>
      <trkpt lat="45.9532" lon="6.06211">
        <ele>814.374023</ele>
        <time>2011-09-30T14:43:13Z</time>
      </trkpt>
      <trkpt lat="45.95323" lon="6.06204">
        <ele>814.374023</ele>
        <time>2011-09-30T14:43:24Z</time>
      </trkpt>
      <trkpt lat="45.95323" lon="6.06194">
        <ele>816.296631</ele>
        <time>2011-09-30T14:43:35Z</time>
      </trkpt>
      <trkpt lat="45.95321" lon="6.06187">
        <ele>817.258057</ele>
        <time>2011-09-30T14:43:44Z</time>
      </trkpt>
      <trkpt lat="45.95318" lon="6.06185">
        <ele>816.777344</ele>
        <time>2011-09-30T14:43:53Z</time>
      </trkpt>
      <trkpt lat="45.95317" lon="6.0618">
        <ele>818.219238</ele>
        <time>2011-09-30T14:44:02Z</time>
      </trkpt>
      <trkpt lat="45.95311" lon="6.06176">
        <ele>818.699951</ele>
        <time>2011-09-30T14:44:11Z</time>
      </trkpt>
      <trkpt lat="45.95306" lon="6.06174">
        <ele>818.699951</ele>
        <time>2011-09-30T14:44:19Z</time>
      </trkpt>
      <trkpt lat="45.95301" lon="6.0617">
        <ele>819.661377</ele>
        <time>2011-09-30T14:44:28Z</time>
      </trkpt>
      <trkpt lat="45.95297" lon="6.06168">
        <ele>820.141846</ele>
        <time>2011-09-30T14:44:37Z</time>
      </trkpt>
      <trkpt lat="45.95291" lon="6.06165">
        <ele>820.622559</ele>
        <time>2011-09-30T14:44:45Z</time>
      </trkpt>
      <trkpt lat="45.95287" lon="6.06163">
        <ele>821.103271</ele>
        <time>2011-09-30T14:44:53Z</time>
      </trkpt>
      <trkpt lat="45.95283" lon="6.06164">
        <ele>823.025879</ele>
        <time>2011-09-30T14:45:04Z</time>
      </trkpt>
      <trkpt lat="45.95276" lon="6.06164">
        <ele>823.987061</ele>
        <time>2011-09-30T14:45:13Z</time>
      </trkpt>
      <trkpt lat="45.9527" lon="6.06163">
        <ele>825.909668</ele>
        <time>2011-09-30T14:45:24Z</time>
      </trkpt>
      <trkpt lat="45.95264" lon="6.06161">
        <ele>825.909668</ele>
        <time>2011-09-30T14:45:32Z</time>
      </trkpt>
      <trkpt lat="45.95258" lon="6.0616">
        <ele>827.351807</ele>
        <time>2011-09-30T14:45:44Z</time>
      </trkpt>
      <trkpt lat="45.95253" lon="6.06163">
        <ele>829.274414</ele>
        <time>2011-09-30T14:45:55Z</time>
      </trkpt>
      <trkpt lat="45.9525" lon="6.06168">
        <ele>830.23584</ele>
        <time>2011-09-30T14:46:03Z</time>
      </trkpt>
      <trkpt lat="45.95246" lon="6.06171">
        <ele>830.716553</ele>
        <time>2011-09-30T14:46:12Z</time>
      </trkpt>
      <trkpt lat="45.95242" lon="6.06173">
        <ele>830.716553</ele>
        <time>2011-09-30T14:46:20Z</time>
      </trkpt>
      <trkpt lat="45.95235" lon="6.06175">
        <ele>832.158447</ele>
        <time>2011-09-30T14:46:31Z</time>
      </trkpt>
      <trkpt lat="45.95231" lon="6.06174">
        <ele>833.600342</ele>
        <time>2011-09-30T14:46:41Z</time>
      </trkpt>
      <trkpt lat="45.95226" lon="6.06174">
        <ele>834.561768</ele>
        <time>2011-09-30T14:46:50Z</time>
      </trkpt>
      <trkpt lat="45.95221" lon="6.06176">
        <ele>834.561768</ele>
        <time>2011-09-30T14:46:59Z</time>
      </trkpt>
      <trkpt lat="45.95216" lon="6.06176">
        <ele>835.522949</ele>
        <time>2011-09-30T14:47:09Z</time>
      </trkpt>
      <trkpt lat="45.95212" lon="6.06174">
        <ele>836.964844</ele>
        <time>2011-09-30T14:47:18Z</time>
      </trkpt>
      <trkpt lat="45.95206" lon="6.0617">
        <ele>838.887695</ele>
        <time>2011-09-30T14:47:29Z</time>
      </trkpt>
      <trkpt lat="45.95203" lon="6.06165">
        <ele>839.368164</ele>
        <time>2011-09-30T14:47:40Z</time>
      </trkpt>
      <trkpt lat="45.95201" lon="6.06158">
        <ele>841.771484</ele>
        <time>2011-09-30T14:47:52Z</time>
      </trkpt>
      <trkpt lat="45.95197" lon="6.06152">
        <ele>842.73291</ele>
        <time>2011-09-30T14:48:04Z</time>
      </trkpt>
      <trkpt lat="45.95184" lon="6.06135">
        <ele>844.175049</ele>
        <time>2011-09-30T14:51:18Z</time>
      </trkpt>
      <trkpt lat="45.95188" lon="6.06131">
        <ele>845.616943</ele>
        <time>2011-09-30T14:51:28Z</time>
      </trkpt>
      <trkpt lat="45.95191" lon="6.06126">
        <ele>847.539551</ele>
        <time>2011-09-30T14:51:38Z</time>
      </trkpt>
      <trkpt lat="45.95191" lon="6.0612">
        <ele>848.500732</ele>
        <time>2011-09-30T14:51:47Z</time>
      </trkpt>
      <trkpt lat="45.95192" lon="6.06114">
        <ele>849.942871</ele>
        <time>2011-09-30T14:51:57Z</time>
      </trkpt>
      <trkpt lat="45.95193" lon="6.06107">
        <ele>851.384766</ele>
        <time>2011-09-30T14:52:08Z</time>
      </trkpt>
      <trkpt lat="45.95195" lon="6.06102">
        <ele>852.345947</ele>
        <time>2011-09-30T14:52:18Z</time>
      </trkpt>
      <trkpt lat="45.95194" lon="6.06099">
        <ele>853.307373</ele>
        <time>2011-09-30T14:52:26Z</time>
      </trkpt>
      <trkpt lat="45.95193" lon="6.06092">
        <ele>854.749268</ele>
        <time>2011-09-30T14:52:36Z</time>
      </trkpt>
      <trkpt lat="45.95192" lon="6.06086">
        <ele>855.710693</ele>
        <time>2011-09-30T14:52:45Z</time>
      </trkpt>
      <trkpt lat="45.95192" lon="6.06077">
        <ele>856.671875</ele>
        <time>2011-09-30T14:52:55Z</time>
      </trkpt>
      <trkpt lat="45.95193" lon="6.06074">
        <ele>856.671875</ele>
        <time>2011-09-30T14:53:03Z</time>
      </trkpt>
      <trkpt lat="45.95196" lon="6.06071">
        <ele>857.152588</ele>
        <time>2011-09-30T14:53:14Z</time>
      </trkpt>
      <trkpt lat="45.95202" lon="6.06068">
        <ele>858.114014</ele>
        <time>2011-09-30T14:53:24Z</time>
      </trkpt>
      <trkpt lat="45.95208" lon="6.06063">
        <ele>857.633301</ele>
        <time>2011-09-30T14:53:36Z</time>
      </trkpt>
      <trkpt lat="45.95212" lon="6.06059">
        <ele>858.114014</ele>
        <time>2011-09-30T14:53:44Z</time>
      </trkpt>
      <trkpt lat="45.95218" lon="6.06054">
        <ele>859.075195</ele>
        <time>2011-09-30T14:53:52Z</time>
      </trkpt>
      <trkpt lat="45.95222" lon="6.06045">
        <ele>860.517334</ele>
        <time>2011-09-30T14:54:03Z</time>
      </trkpt>
      <trkpt lat="45.95225" lon="6.06042">
        <ele>861.47876</ele>
        <time>2011-09-30T14:54:11Z</time>
      </trkpt>
      <trkpt lat="45.95229" lon="6.06038">
        <ele>862.920654</ele>
        <time>2011-09-30T14:54:21Z</time>
      </trkpt>
      <trkpt lat="45.95233" lon="6.06035">
        <ele>863.401367</ele>
        <time>2011-09-30T14:54:30Z</time>
      </trkpt>
      <trkpt lat="45.95237" lon="6.06032">
        <ele>863.401367</ele>
        <time>2011-09-30T14:54:38Z</time>
      </trkpt>
      <trkpt lat="45.9524" lon="6.06028">
        <ele>864.362549</ele>
        <time>2011-09-30T14:54:47Z</time>
      </trkpt>
      <trkpt lat="45.95244" lon="6.06023">
        <ele>866.285156</ele>
        <time>2011-09-30T14:54:55Z</time>
      </trkpt>
      <trkpt lat="45.9525" lon="6.06016">
        <ele>866.765869</ele>
        <time>2011-09-30T14:55:05Z</time>
      </trkpt>
      <trkpt lat="45.95254" lon="6.0601">
        <ele>867.246582</ele>
        <time>2011-09-30T14:55:15Z</time>
      </trkpt>
      <trkpt lat="45.9526" lon="6.06005">
        <ele>868.207764</ele>
        <time>2011-09-30T14:55:24Z</time>
      </trkpt>
      <trkpt lat="45.95264" lon="6.05999">
        <ele>868.688477</ele>
        <time>2011-09-30T14:55:32Z</time>
      </trkpt>
      <trkpt lat="45.95269" lon="6.05992">
        <ele>869.649902</ele>
        <time>2011-09-30T14:55:42Z</time>
      </trkpt>
      <trkpt lat="45.95272" lon="6.05984">
        <ele>870.611084</ele>
        <time>2011-09-30T14:55:51Z</time>
      </trkpt>
      <trkpt lat="45.95276" lon="6.05975">
        <ele>872.533691</ele>
        <time>2011-09-30T14:56:04Z</time>
      </trkpt>
      <trkpt lat="45.9528" lon="6.05968">
        <ele>873.495117</ele>
        <time>2011-09-30T14:56:14Z</time>
      </trkpt>
      <trkpt lat="45.95282" lon="6.05963">
        <ele>874.456299</ele>
        <time>2011-09-30T14:56:22Z</time>
      </trkpt>
      <trkpt lat="45.95282" lon="6.05961">
        <ele>875.898193</ele>
        <time>2011-09-30T14:56:26Z</time>
      </trkpt>
      <trkpt lat="45.95284" lon="6.05958">
        <ele>877.340576</ele>
        <time>2011-09-30T14:56:35Z</time>
      </trkpt>
      <trkpt lat="45.95286" lon="6.05952">
        <ele>878.782471</ele>
        <time>2011-09-30T14:56:43Z</time>
      </trkpt>
      <trkpt lat="45.95288" lon="6.05947">
        <ele>879.262939</ele>
        <time>2011-09-30T14:56:51Z</time>
      </trkpt>
      <trkpt lat="45.95292" lon="6.05939">
        <ele>878.782471</ele>
        <time>2011-09-30T14:57:00Z</time>
      </trkpt>
      <trkpt lat="45.95297" lon="6.05933">
        <ele>879.262939</ele>
        <time>2011-09-30T14:57:09Z</time>
      </trkpt>
      <trkpt lat="45.953" lon="6.05929">
        <ele>878.782471</ele>
        <time>2011-09-30T14:57:21Z</time>
      </trkpt>
      <trkpt lat="45.95306" lon="6.05923">
        <ele>878.782471</ele>
        <time>2011-09-30T14:57:32Z</time>
      </trkpt>
      <trkpt lat="45.95309" lon="6.05916">
        <ele>878.782471</ele>
        <time>2011-09-30T14:57:41Z</time>
      </trkpt>
      <trkpt lat="45.95314" lon="6.05907">
        <ele>879.262939</ele>
        <time>2011-09-30T14:57:51Z</time>
      </trkpt>
      <trkpt lat="45.95318" lon="6.05899">
        <ele>880.224365</ele>
        <time>2011-09-30T14:57:59Z</time>
      </trkpt>
      <trkpt lat="45.95321" lon="6.05891">
        <ele>881.185791</ele>
        <time>2011-09-30T14:58:11Z</time>
      </trkpt>
      <trkpt lat="45.95324" lon="6.05884">
        <ele>882.146973</ele>
        <time>2011-09-30T14:58:20Z</time>
      </trkpt>
      <trkpt lat="45.95325" lon="6.05877">
        <ele>883.588867</ele>
        <time>2011-09-30T14:58:27Z</time>
      </trkpt>
      <trkpt lat="45.95324" lon="6.05869">
        <ele>885.031006</ele>
        <time>2011-09-30T14:58:34Z</time>
      </trkpt>
      <trkpt lat="45.95325" lon="6.05862">
        <ele>885.511475</ele>
        <time>2011-09-30T14:58:42Z</time>
      </trkpt>
      <trkpt lat="45.95324" lon="6.05856">
        <ele>886.4729</ele>
        <time>2011-09-30T14:58:50Z</time>
      </trkpt>
      <trkpt lat="45.95321" lon="6.0585">
        <ele>886.953369</ele>
        <time>2011-09-30T14:59:01Z</time>
      </trkpt>
      <trkpt lat="45.95319" lon="6.05845">
        <ele>886.4729</ele>
        <time>2011-09-30T14:59:13Z</time>
      </trkpt>
      <trkpt lat="45.95314" lon="6.05843">
        <ele>886.4729</ele>
        <time>2011-09-30T14:59:22Z</time>
      </trkpt>
      <trkpt lat="45.9531" lon="6.05842">
        <ele>886.4729</ele>
        <time>2011-09-30T15:00:11Z</time>
      </trkpt>
      <trkpt lat="45.95307" lon="6.05841">
        <ele>886.953369</ele>
        <time>2011-09-30T15:00:20Z</time>
      </trkpt>
      <trkpt lat="45.95302" lon="6.05841">
        <ele>887.434082</ele>
        <time>2011-09-30T15:00:28Z</time>
      </trkpt>
      <trkpt lat="45.95298" lon="6.05843">
        <ele>888.395508</ele>
        <time>2011-09-30T15:04:04Z</time>
      </trkpt>
      <trkpt lat="45.95295" lon="6.05841">
        <ele>888.876221</ele>
        <time>2011-09-30T15:04:38Z</time>
      </trkpt>
      <trkpt lat="45.95291" lon="6.05846">
        <ele>890.318115</ele>
        <time>2011-09-30T15:04:47Z</time>
      </trkpt>
      <trkpt lat="45.95286" lon="6.05852">
        <ele>890.798584</ele>
        <time>2011-09-30T15:04:56Z</time>
      </trkpt>
      <trkpt lat="45.95281" lon="6.05858">
        <ele>892.72168</ele>
        <time>2011-09-30T15:05:07Z</time>
      </trkpt>
      <trkpt lat="45.95278" lon="6.05867">
        <ele>892.240967</ele>
        <time>2011-09-30T15:05:16Z</time>
      </trkpt>
      <trkpt lat="45.95276" lon="6.05873">
        <ele>892.72168</ele>
        <time>2011-09-30T15:05:23Z</time>
      </trkpt>
      <trkpt lat="45.9527" lon="6.05879">
        <ele>893.682861</ele>
        <time>2011-09-30T15:05:34Z</time>
      </trkpt>
      <trkpt lat="45.95264" lon="6.05882">
        <ele>895.124756</ele>
        <time>2011-09-30T15:05:46Z</time>
      </trkpt>
      <trkpt lat="45.9526" lon="6.05887">
        <ele>896.086182</ele>
        <time>2011-09-30T15:05:57Z</time>
      </trkpt>
      <trkpt lat="45.95256" lon="6.05886">
        <ele>895.605469</ele>
        <time>2011-09-30T15:06:06Z</time>
      </trkpt>
      <trkpt lat="45.95251" lon="6.05884">
        <ele>896.566895</ele>
        <time>2011-09-30T15:06:18Z</time>
      </trkpt>
      <trkpt lat="45.95247" lon="6.0588">
        <ele>897.528076</ele>
        <time>2011-09-30T15:06:26Z</time>
      </trkpt>
      <trkpt lat="45.95244" lon="6.05875">
        <ele>898.489258</ele>
        <time>2011-09-30T15:06:36Z</time>
      </trkpt>
      <trkpt lat="45.95242" lon="6.0587">
        <ele>899.450684</ele>
        <time>2011-09-30T15:06:44Z</time>
      </trkpt>
      <trkpt lat="45.95241" lon="6.05868">
        <ele>898.969971</ele>
        <time>2011-09-30T15:06:55Z</time>
      </trkpt>
      <trkpt lat="45.95239" lon="6.05868">
        <ele>898.969971</ele>
        <time>2011-09-30T15:07:10Z</time>
      </trkpt>
      <trkpt lat="45.95241" lon="6.05867">
        <ele>899.450684</ele>
        <time>2011-09-30T15:09:41Z</time>
      </trkpt>
      <trkpt lat="45.95239" lon="6.05874">
        <ele>898.008789</ele>
        <time>2011-09-30T15:09:48Z</time>
      </trkpt>
      <trkpt lat="45.95243" lon="6.05879">
        <ele>896.566895</ele>
        <time>2011-09-30T15:09:56Z</time>
      </trkpt>
      <trkpt lat="45.95246" lon="6.05882">
        <ele>895.124756</ele>
        <time>2011-09-30T15:10:04Z</time>
      </trkpt>
      <trkpt lat="45.9525" lon="6.05886">
        <ele>894.644043</ele>
        <time>2011-09-30T15:10:13Z</time>
      </trkpt>
      <trkpt lat="45.95254" lon="6.05889">
        <ele>895.124756</ele>
        <time>2011-09-30T15:10:22Z</time>
      </trkpt>
      <trkpt lat="45.95259" lon="6.05888">
        <ele>894.644043</ele>
        <time>2011-09-30T15:10:30Z</time>
      </trkpt>
      <trkpt lat="45.95264" lon="6.05888">
        <ele>892.240967</ele>
        <time>2011-09-30T15:10:39Z</time>
      </trkpt>
      <trkpt lat="45.95272" lon="6.05885">
        <ele>891.76001</ele>
        <time>2011-09-30T15:10:49Z</time>
      </trkpt>
      <trkpt lat="45.95277" lon="6.05881">
        <ele>891.279297</ele>
        <time>2011-09-30T15:10:56Z</time>
      </trkpt>
      <trkpt lat="45.95281" lon="6.05876">
        <ele>891.76001</ele>
        <time>2011-09-30T15:11:04Z</time>
      </trkpt>
      <trkpt lat="45.95286" lon="6.05869">
        <ele>890.318115</ele>
        <time>2011-09-30T15:11:13Z</time>
      </trkpt>
      <trkpt lat="45.95288" lon="6.05862">
        <ele>888.876221</ele>
        <time>2011-09-30T15:11:21Z</time>
      </trkpt>
      <trkpt lat="45.9529" lon="6.05852">
        <ele>889.356689</ele>
        <time>2011-09-30T15:11:29Z</time>
      </trkpt>
      <trkpt lat="45.95289" lon="6.05844">
        <ele>889.356689</ele>
        <time>2011-09-30T15:11:37Z</time>
      </trkpt>
      <trkpt lat="45.95292" lon="6.05838">
        <ele>889.356689</ele>
        <time>2011-09-30T15:12:07Z</time>
      </trkpt>
      <trkpt lat="45.95288" lon="6.05834">
        <ele>889.356689</ele>
        <time>2011-09-30T15:12:18Z</time>
      </trkpt>
      <trkpt lat="45.95287" lon="6.0583">
        <ele>890.318115</ele>
        <time>2011-09-30T15:12:27Z</time>
      </trkpt>
      <trkpt lat="45.95288" lon="6.05824">
        <ele>891.76001</ele>
        <time>2011-09-30T15:12:35Z</time>
      </trkpt>
      <trkpt lat="45.95289" lon="6.05819">
        <ele>893.682861</ele>
        <time>2011-09-30T15:12:46Z</time>
      </trkpt>
      <trkpt lat="45.95294" lon="6.05813">
        <ele>896.086182</ele>
        <time>2011-09-30T15:12:56Z</time>
      </trkpt>
      <trkpt lat="45.95299" lon="6.05805">
        <ele>896.566895</ele>
        <time>2011-09-30T15:13:06Z</time>
      </trkpt>
      <trkpt lat="45.953" lon="6.05797">
        <ele>898.008789</ele>
        <time>2011-09-30T15:13:17Z</time>
      </trkpt>
      <trkpt lat="45.95304" lon="6.05797">
        <ele>899.931396</ele>
        <time>2011-09-30T15:13:26Z</time>
      </trkpt>
      <trkpt lat="45.95304" lon="6.05794">
        <ele>899.931396</ele>
        <time>2011-09-30T15:13:35Z</time>
      </trkpt>
      <trkpt lat="45.95306" lon="6.05786">
        <ele>901.854004</ele>
        <time>2011-09-30T15:13:46Z</time>
      </trkpt>
      <trkpt lat="45.95304" lon="6.05778">
        <ele>901.854004</ele>
        <time>2011-09-30T15:13:57Z</time>
      </trkpt>
      <trkpt lat="45.95302" lon="6.05772">
        <ele>902.815186</ele>
        <time>2011-09-30T15:14:08Z</time>
      </trkpt>
      <trkpt lat="45.95301" lon="6.0577">
        <ele>902.815186</ele>
        <time>2011-09-30T15:14:30Z</time>
      </trkpt>
      <trkpt lat="45.95304" lon="6.05777">
        <ele>902.815186</ele>
        <time>2011-09-30T15:19:06Z</time>
      </trkpt>
      <trkpt lat="45.95308" lon="6.0578">
        <ele>902.815186</ele>
        <time>2011-09-30T15:19:33Z</time>
      </trkpt>
      <trkpt lat="45.95308" lon="6.05774">
        <ele>901.854004</ele>
        <time>2011-09-30T15:19:44Z</time>
      </trkpt>
      <trkpt lat="45.95309" lon="6.05769">
        <ele>901.373291</ele>
        <time>2011-09-30T15:19:52Z</time>
      </trkpt>
      <trkpt lat="45.95313" lon="6.05767">
        <ele>900.892578</ele>
        <time>2011-09-30T15:20:02Z</time>
      </trkpt>
      <trkpt lat="45.95312" lon="6.05761">
        <ele>899.931396</ele>
        <time>2011-09-30T15:20:11Z</time>
      </trkpt>
      <trkpt lat="45.95315" lon="6.05757">
        <ele>898.489258</ele>
        <time>2011-09-30T15:20:20Z</time>
      </trkpt>
      <trkpt lat="45.95314" lon="6.05755">
        <ele>898.008789</ele>
        <time>2011-09-30T15:20:31Z</time>
      </trkpt>
      <trkpt lat="45.95316" lon="6.05753">
        <ele>897.047363</ele>
        <time>2011-09-30T15:20:40Z</time>
      </trkpt>
      <trkpt lat="45.9532" lon="6.05751">
        <ele>895.605469</ele>
        <time>2011-09-30T15:20:50Z</time>
      </trkpt>
      <trkpt lat="45.95321" lon="6.05748">
        <ele>895.124756</ele>
        <time>2011-09-30T15:21:01Z</time>
      </trkpt>
      <trkpt lat="45.95326" lon="6.05751">
        <ele>893.682861</ele>
        <time>2011-09-30T15:21:23Z</time>
      </trkpt>
      <trkpt lat="45.9533" lon="6.0575">
        <ele>891.76001</ele>
        <time>2011-09-30T15:21:31Z</time>
      </trkpt>
      <trkpt lat="45.95335" lon="6.0575">
        <ele>892.240967</ele>
        <time>2011-09-30T15:21:41Z</time>
      </trkpt>
      <trkpt lat="45.95339" lon="6.05745">
        <ele>892.72168</ele>
        <time>2011-09-30T15:21:49Z</time>
      </trkpt>
      <trkpt lat="45.95341" lon="6.05741">
        <ele>893.202148</ele>
        <time>2011-09-30T15:21:56Z</time>
      </trkpt>
      <trkpt lat="45.95344" lon="6.05736">
        <ele>893.682861</ele>
        <time>2011-09-30T15:22:04Z</time>
      </trkpt>
      <trkpt lat="45.95347" lon="6.05726">
        <ele>893.682861</ele>
        <time>2011-09-30T15:22:14Z</time>
      </trkpt>
      <trkpt lat="45.95351" lon="6.0572">
        <ele>893.202148</ele>
        <time>2011-09-30T15:22:22Z</time>
      </trkpt>
      <trkpt lat="45.95358" lon="6.05713">
        <ele>894.163574</ele>
        <time>2011-09-30T15:22:34Z</time>
      </trkpt>
      <trkpt lat="45.95362" lon="6.05706">
        <ele>895.124756</ele>
        <time>2011-09-30T15:22:42Z</time>
      </trkpt>
      <trkpt lat="45.95366" lon="6.05701">
        <ele>894.163574</ele>
        <time>2011-09-30T15:22:52Z</time>
      </trkpt>
      <trkpt lat="45.9537" lon="6.05696">
        <ele>894.163574</ele>
        <time>2011-09-30T15:23:01Z</time>
      </trkpt>
      <trkpt lat="45.95374" lon="6.05688">
        <ele>894.163574</ele>
        <time>2011-09-30T15:23:11Z</time>
      </trkpt>
      <trkpt lat="45.95377" lon="6.05681">
        <ele>895.124756</ele>
        <time>2011-09-30T15:23:21Z</time>
      </trkpt>
      <trkpt lat="45.95383" lon="6.05675">
        <ele>895.605469</ele>
        <time>2011-09-30T15:23:30Z</time>
      </trkpt>
      <trkpt lat="45.95388" lon="6.05669">
        <ele>895.605469</ele>
        <time>2011-09-30T15:23:39Z</time>
      </trkpt>
      <trkpt lat="45.95395" lon="6.05662">
        <ele>895.124756</ele>
        <time>2011-09-30T15:23:49Z</time>
      </trkpt>
      <trkpt lat="45.95399" lon="6.05652">
        <ele>893.202148</ele>
        <time>2011-09-30T15:23:59Z</time>
      </trkpt>
      <trkpt lat="45.95405" lon="6.05648">
        <ele>893.202148</ele>
        <time>2011-09-30T15:24:07Z</time>
      </trkpt>
      <trkpt lat="45.95413" lon="6.05646">
        <ele>893.202148</ele>
        <time>2011-09-30T15:24:17Z</time>
      </trkpt>
      <trkpt lat="45.9542" lon="6.0564">
        <ele>891.76001</ele>
        <time>2011-09-30T15:24:27Z</time>
      </trkpt>
      <trkpt lat="45.95424" lon="6.05633">
        <ele>891.279297</ele>
        <time>2011-09-30T15:24:34Z</time>
      </trkpt>
      <trkpt lat="45.95432" lon="6.05627">
        <ele>890.318115</ele>
        <time>2011-09-30T15:24:44Z</time>
      </trkpt>
      <trkpt lat="45.95437" lon="6.0562">
        <ele>889.356689</ele>
        <time>2011-09-30T15:24:52Z</time>
      </trkpt>
      <trkpt lat="45.95442" lon="6.05613">
        <ele>889.356689</ele>
        <time>2011-09-30T15:24:59Z</time>
      </trkpt>
      <trkpt lat="45.95447" lon="6.05602">
        <ele>889.356689</ele>
        <time>2011-09-30T15:25:09Z</time>
      </trkpt>
      <trkpt lat="45.9545" lon="6.05591">
        <ele>888.876221</ele>
        <time>2011-09-30T15:25:19Z</time>
      </trkpt>
      <trkpt lat="45.9545" lon="6.05588">
        <ele>888.395508</ele>
        <time>2011-09-30T15:25:28Z</time>
      </trkpt>
      <trkpt lat="45.95454" lon="6.0558">
        <ele>886.4729</ele>
        <time>2011-09-30T15:25:38Z</time>
      </trkpt>
      <trkpt lat="45.95457" lon="6.05574">
        <ele>884.550293</ele>
        <time>2011-09-30T15:25:45Z</time>
      </trkpt>
      <trkpt lat="45.95461" lon="6.05566">
        <ele>884.06958</ele>
        <time>2011-09-30T15:25:54Z</time>
      </trkpt>
      <trkpt lat="45.95465" lon="6.05562">
        <ele>883.108154</ele>
        <time>2011-09-30T15:26:01Z</time>
      </trkpt>
      <trkpt lat="45.95471" lon="6.05565">
        <ele>882.146973</ele>
        <time>2011-09-30T15:26:09Z</time>
      </trkpt>
      <trkpt lat="45.95475" lon="6.05569">
        <ele>881.66626</ele>
        <time>2011-09-30T15:26:17Z</time>
      </trkpt>
      <trkpt lat="45.95484" lon="6.05569">
        <ele>881.66626</ele>
        <time>2011-09-30T15:26:26Z</time>
      </trkpt>
      <trkpt lat="45.95489" lon="6.05564">
        <ele>881.66626</ele>
        <time>2011-09-30T15:26:34Z</time>
      </trkpt>
      <trkpt lat="45.95493" lon="6.05562">
        <ele>881.185791</ele>
        <time>2011-09-30T15:26:40Z</time>
      </trkpt>
      <trkpt lat="45.95501" lon="6.05557">
        <ele>880.224365</ele>
        <time>2011-09-30T15:26:49Z</time>
      </trkpt>
      <trkpt lat="45.95507" lon="6.05551">
        <ele>879.743652</ele>
        <time>2011-09-30T15:26:58Z</time>
      </trkpt>
      <trkpt lat="45.95512" lon="6.05547">
        <ele>877.340576</ele>
        <time>2011-09-30T15:27:06Z</time>
      </trkpt>
      <trkpt lat="45.95517" lon="6.05543">
        <ele>876.37915</ele>
        <time>2011-09-30T15:27:13Z</time>
      </trkpt>
      <trkpt lat="45.95526" lon="6.05541">
        <ele>874.456299</ele>
        <time>2011-09-30T15:27:23Z</time>
      </trkpt>
      <trkpt lat="45.95534" lon="6.05541">
        <ele>873.014404</ele>
        <time>2011-09-30T15:27:31Z</time>
      </trkpt>
      <trkpt lat="45.95541" lon="6.05542">
        <ele>871.091797</ele>
        <time>2011-09-30T15:27:40Z</time>
      </trkpt>
      <trkpt lat="45.95545" lon="6.05545">
        <ele>870.130371</ele>
        <time>2011-09-30T15:27:46Z</time>
      </trkpt>
      <trkpt lat="45.9555" lon="6.05545">
        <ele>868.688477</ele>
        <time>2011-09-30T15:27:58Z</time>
      </trkpt>
      <trkpt lat="45.95556" lon="6.05545">
        <ele>867.727051</ele>
        <time>2011-09-30T15:28:08Z</time>
      </trkpt>
      <trkpt lat="45.95556" lon="6.0555">
        <ele>865.804688</ele>
        <time>2011-09-30T15:28:15Z</time>
      </trkpt>
      <trkpt lat="45.95554" lon="6.05557">
        <ele>863.881836</ele>
        <time>2011-09-30T15:28:23Z</time>
      </trkpt>
      <trkpt lat="45.95552" lon="6.05564">
        <ele>862.439941</ele>
        <time>2011-09-30T15:28:30Z</time>
      </trkpt>
      <trkpt lat="45.9555" lon="6.05572">
        <ele>860.517334</ele>
        <time>2011-09-30T15:28:38Z</time>
      </trkpt>
      <trkpt lat="45.95549" lon="6.0558">
        <ele>859.075195</ele>
        <time>2011-09-30T15:28:46Z</time>
      </trkpt>
      <trkpt lat="45.95542" lon="6.05591">
        <ele>858.594482</ele>
        <time>2011-09-30T15:28:57Z</time>
      </trkpt>
      <trkpt lat="45.95538" lon="6.056">
        <ele>856.191162</ele>
        <time>2011-09-30T15:29:05Z</time>
      </trkpt>
      <trkpt lat="45.95535" lon="6.05604">
        <ele>855.22998</ele>
        <time>2011-09-30T15:29:11Z</time>
      </trkpt>
      <trkpt lat="45.95536" lon="6.05612">
        <ele>854.268799</ele>
        <time>2011-09-30T15:29:22Z</time>
      </trkpt>
      <trkpt lat="45.95542" lon="6.05621">
        <ele>853.307373</ele>
        <time>2011-09-30T15:29:36Z</time>
      </trkpt>
      <trkpt lat="45.95544" lon="6.05622">
        <ele>853.788086</ele>
        <time>2011-09-30T15:29:48Z</time>
      </trkpt>
      <trkpt lat="45.9554" lon="6.05628">
        <ele>851.865479</ele>
        <time>2011-09-30T15:29:58Z</time>
      </trkpt>
      <trkpt lat="45.95539" lon="6.05633">
        <ele>850.423584</ele>
        <time>2011-09-30T15:30:05Z</time>
      </trkpt>
      <trkpt lat="45.95534" lon="6.05637">
        <ele>849.942871</ele>
        <time>2011-09-30T15:30:11Z</time>
      </trkpt>
      <trkpt lat="45.95534" lon="6.05642">
        <ele>848.981445</ele>
        <time>2011-09-30T15:30:18Z</time>
      </trkpt>
      <trkpt lat="45.95535" lon="6.05651">
        <ele>847.539551</ele>
        <time>2011-09-30T15:30:28Z</time>
      </trkpt>
      <trkpt lat="45.95541" lon="6.05662">
        <ele>845.616943</ele>
        <time>2011-09-30T15:30:36Z</time>
      </trkpt>
      <trkpt lat="45.95549" lon="6.0567">
        <ele>844.175049</ele>
        <time>2011-09-30T15:30:45Z</time>
      </trkpt>
      <trkpt lat="45.95555" lon="6.05669">
        <ele>842.252197</ele>
        <time>2011-09-30T15:30:52Z</time>
      </trkpt>
      <trkpt lat="45.95557" lon="6.05669">
        <ele>842.252197</ele>
        <time>2011-09-30T15:30:59Z</time>
      </trkpt>
      <trkpt lat="45.95563" lon="6.05672">
        <ele>841.290771</ele>
        <time>2011-09-30T15:31:09Z</time>
      </trkpt>
      <trkpt lat="45.9557" lon="6.05671">
        <ele>839.848877</ele>
        <time>2011-09-30T15:31:18Z</time>
      </trkpt>
      <trkpt lat="45.95575" lon="6.05671">
        <ele>837.92627</ele>
        <time>2011-09-30T15:31:25Z</time>
      </trkpt>
      <trkpt lat="45.95582" lon="6.05669">
        <ele>836.003662</ele>
        <time>2011-09-30T15:31:35Z</time>
      </trkpt>
      <trkpt lat="45.95587" lon="6.05664">
        <ele>834.561768</ele>
        <time>2011-09-30T15:31:45Z</time>
      </trkpt>
      <trkpt lat="45.95589" lon="6.0566">
        <ele>832.63916</ele>
        <time>2011-09-30T15:31:53Z</time>
      </trkpt>
      <trkpt lat="45.95593" lon="6.05656">
        <ele>830.716553</ele>
        <time>2011-09-30T15:32:03Z</time>
      </trkpt>
      <trkpt lat="45.95597" lon="6.05653">
        <ele>829.755127</ele>
        <time>2011-09-30T15:32:10Z</time>
      </trkpt>
      <trkpt lat="45.95602" lon="6.05649">
        <ele>828.793945</ele>
        <time>2011-09-30T15:32:18Z</time>
      </trkpt>
      <trkpt lat="45.95605" lon="6.05648">
        <ele>827.832275</ele>
        <time>2011-09-30T15:32:25Z</time>
      </trkpt>
      <trkpt lat="45.95609" lon="6.05647">
        <ele>825.909668</ele>
        <time>2011-09-30T15:32:33Z</time>
      </trkpt>
      <trkpt lat="45.95615" lon="6.05646">
        <ele>824.467773</ele>
        <time>2011-09-30T15:32:41Z</time>
      </trkpt>
      <trkpt lat="45.95621" lon="6.05646">
        <ele>821.58374</ele>
        <time>2011-09-30T15:32:50Z</time>
      </trkpt>
      <trkpt lat="45.95623" lon="6.05645">
        <ele>821.58374</ele>
        <time>2011-09-30T15:32:52Z</time>
      </trkpt>
      <trkpt lat="45.9563" lon="6.05641">
        <ele>820.141846</ele>
        <time>2011-09-30T15:32:59Z</time>
      </trkpt>
      <trkpt lat="45.95636" lon="6.05637">
        <ele>818.219238</ele>
        <time>2011-09-30T15:33:07Z</time>
      </trkpt>
      <trkpt lat="45.95641" lon="6.05637">
        <ele>816.296631</ele>
        <time>2011-09-30T15:33:15Z</time>
      </trkpt>
      <trkpt lat="45.9564" lon="6.05638">
        <ele>814.374023</ele>
        <time>2011-09-30T15:33:53Z</time>
      </trkpt>
      <trkpt lat="45.9564" lon="6.0564">
        <ele>812.932129</ele>
        <time>2011-09-30T15:34:01Z</time>
      </trkpt>
      <trkpt lat="45.95641" lon="6.0565">
        <ele>811.48999</ele>
        <time>2011-09-30T15:34:10Z</time>
      </trkpt>
      <trkpt lat="45.95638" lon="6.05656">
        <ele>811.009277</ele>
        <time>2011-09-30T15:34:16Z</time>
      </trkpt>
      <trkpt lat="45.95635" lon="6.05661">
        <ele>810.528564</ele>
        <time>2011-09-30T15:34:22Z</time>
      </trkpt>
      <trkpt lat="45.95634" lon="6.05667">
        <ele>810.047852</ele>
        <time>2011-09-30T15:34:27Z</time>
      </trkpt>
      <trkpt lat="45.95633" lon="6.05675">
        <ele>809.08667</ele>
        <time>2011-09-30T15:34:33Z</time>
      </trkpt>
      <trkpt lat="45.95632" lon="6.05683">
        <ele>808.125488</ele>
        <time>2011-09-30T15:34:40Z</time>
      </trkpt>
      <trkpt lat="45.95631" lon="6.05691">
        <ele>806.68335</ele>
        <time>2011-09-30T15:34:46Z</time>
      </trkpt>
      <trkpt lat="45.95628" lon="6.05697">
        <ele>806.202637</ele>
        <time>2011-09-30T15:34:52Z</time>
      </trkpt>
      <trkpt lat="45.95629" lon="6.05705">
        <ele>805.241455</ele>
        <time>2011-09-30T15:34:58Z</time>
      </trkpt>
      <trkpt lat="45.95624" lon="6.05718">
        <ele>804.760742</ele>
        <time>2011-09-30T15:35:07Z</time>
      </trkpt>
      <trkpt lat="45.95627" lon="6.05727">
        <ele>803.799561</ele>
        <time>2011-09-30T15:35:16Z</time>
      </trkpt>
      <trkpt lat="45.95628" lon="6.05735">
        <ele>803.318848</ele>
        <time>2011-09-30T15:35:24Z</time>
      </trkpt>
      <trkpt lat="45.95625" lon="6.05738">
        <ele>801.39624</ele>
        <time>2011-09-30T15:35:29Z</time>
      </trkpt>
      <trkpt lat="45.95621" lon="6.05744">
        <ele>799.954346</ele>
        <time>2011-09-30T15:35:36Z</time>
      </trkpt>
      <trkpt lat="45.95618" lon="6.05753">
        <ele>799.473633</ele>
        <time>2011-09-30T15:35:43Z</time>
      </trkpt>
      <trkpt lat="45.95613" lon="6.05756">
        <ele>798.512207</ele>
        <time>2011-09-30T15:35:49Z</time>
      </trkpt>
      <trkpt lat="45.95607" lon="6.05763">
        <ele>796.589844</ele>
        <time>2011-09-30T15:35:58Z</time>
      </trkpt>
      <trkpt lat="45.95609" lon="6.05774">
        <ele>796.589844</ele>
        <time>2011-09-30T15:36:06Z</time>
      </trkpt>
      <trkpt lat="45.95616" lon="6.05783">
        <ele>795.628174</ele>
        <time>2011-09-30T15:36:18Z</time>
      </trkpt>
      <trkpt lat="45.95618" lon="6.05787">
        <ele>796.589844</ele>
        <time>2011-09-30T15:36:27Z</time>
      </trkpt>
      <trkpt lat="45.95615" lon="6.05791">
        <ele>795.147461</ele>
        <time>2011-09-30T15:36:33Z</time>
      </trkpt>
      <trkpt lat="45.95612" lon="6.05798">
        <ele>794.666748</ele>
        <time>2011-09-30T15:36:40Z</time>
      </trkpt>
      <trkpt lat="45.95604" lon="6.05806">
        <ele>792.744385</ele>
        <time>2011-09-30T15:36:49Z</time>
      </trkpt>
      <trkpt lat="45.95605" lon="6.05816">
        <ele>792.263672</ele>
        <time>2011-09-30T15:36:56Z</time>
      </trkpt>
      <trkpt lat="45.95604" lon="6.05819">
        <ele>792.263672</ele>
        <time>2011-09-30T15:36:58Z</time>
      </trkpt>
      <trkpt lat="45.95603" lon="6.05831">
        <ele>792.744385</ele>
        <time>2011-09-30T15:37:06Z</time>
      </trkpt>
      <trkpt lat="45.95601" lon="6.05841">
        <ele>791.782959</ele>
        <time>2011-09-30T15:37:13Z</time>
      </trkpt>
      <trkpt lat="45.95598" lon="6.05851">
        <ele>790.821533</ele>
        <time>2011-09-30T15:37:20Z</time>
      </trkpt>
      <trkpt lat="45.95597" lon="6.05853">
        <ele>790.821533</ele>
        <time>2011-09-30T15:37:22Z</time>
      </trkpt>
      <trkpt lat="45.95597" lon="6.05861">
        <ele>790.341064</ele>
        <time>2011-09-30T15:37:29Z</time>
      </trkpt>
      <trkpt lat="45.95596" lon="6.05867">
        <ele>789.379639</ele>
        <time>2011-09-30T15:37:34Z</time>
      </trkpt>
      <trkpt lat="45.95593" lon="6.05875">
        <ele>788.89917</ele>
        <time>2011-09-30T15:37:40Z</time>
      </trkpt>
      <trkpt lat="45.95587" lon="6.05885">
        <ele>787.457031</ele>
        <time>2011-09-30T15:37:48Z</time>
      </trkpt>
      <trkpt lat="45.95584" lon="6.05892">
        <ele>786.015137</ele>
        <time>2011-09-30T15:37:54Z</time>
      </trkpt>
      <trkpt lat="45.9558" lon="6.05901">
        <ele>784.092529</ele>
        <time>2011-09-30T15:38:02Z</time>
      </trkpt>
      <trkpt lat="45.95578" lon="6.05907">
        <ele>783.131104</ele>
        <time>2011-09-30T15:38:09Z</time>
      </trkpt>
      <trkpt lat="45.95577" lon="6.05915">
        <ele>781.689209</ele>
        <time>2011-09-30T15:38:18Z</time>
      </trkpt>
      <trkpt lat="45.95579" lon="6.05922">
        <ele>780.247314</ele>
        <time>2011-09-30T15:38:26Z</time>
      </trkpt>
      <trkpt lat="45.95578" lon="6.0593">
        <ele>779.285645</ele>
        <time>2011-09-30T15:38:33Z</time>
      </trkpt>
      <trkpt lat="45.95584" lon="6.05942">
        <ele>778.324463</ele>
        <time>2011-09-30T15:38:44Z</time>
      </trkpt>
      <trkpt lat="45.95584" lon="6.05949">
        <ele>776.882568</ele>
        <time>2011-09-30T15:38:50Z</time>
      </trkpt>
      <trkpt lat="45.95585" lon="6.05959">
        <ele>775.44043</ele>
        <time>2011-09-30T15:39:00Z</time>
      </trkpt>
      <trkpt lat="45.9558" lon="6.05967">
        <ele>773.998535</ele>
        <time>2011-09-30T15:39:07Z</time>
      </trkpt>
      <trkpt lat="45.95579" lon="6.05973">
        <ele>773.037354</ele>
        <time>2011-09-30T15:39:13Z</time>
      </trkpt>
      <trkpt lat="45.95578" lon="6.05985">
        <ele>770.634033</ele>
        <time>2011-09-30T15:39:21Z</time>
      </trkpt>
      <trkpt lat="45.95581" lon="6.05993">
        <ele>770.15332</ele>
        <time>2011-09-30T15:39:29Z</time>
      </trkpt>
      <trkpt lat="45.95583" lon="6.06004">
        <ele>769.672852</ele>
        <time>2011-09-30T15:39:36Z</time>
      </trkpt>
      <trkpt lat="45.95583" lon="6.06011">
        <ele>769.192139</ele>
        <time>2011-09-30T15:39:42Z</time>
      </trkpt>
      <trkpt lat="45.95581" lon="6.0602">
        <ele>767.269531</ele>
        <time>2011-09-30T15:39:49Z</time>
      </trkpt>
      <trkpt lat="45.95576" lon="6.06027">
        <ele>766.788818</ele>
        <time>2011-09-30T15:39:57Z</time>
      </trkpt>
      <trkpt lat="45.95577" lon="6.06036">
        <ele>765.346924</ele>
        <time>2011-09-30T15:40:03Z</time>
      </trkpt>
      <trkpt lat="45.95578" lon="6.06046">
        <ele>764.385498</ele>
        <time>2011-09-30T15:40:10Z</time>
      </trkpt>
      <trkpt lat="45.95582" lon="6.06055">
        <ele>763.904541</ele>
        <time>2011-09-30T15:40:18Z</time>
      </trkpt>
      <trkpt lat="45.9558" lon="6.06065">
        <ele>763.904541</ele>
        <time>2011-09-30T15:40:27Z</time>
      </trkpt>
      <trkpt lat="45.95578" lon="6.06078">
        <ele>763.424072</ele>
        <time>2011-09-30T15:40:37Z</time>
      </trkpt>
      <trkpt lat="45.95573" lon="6.06091">
        <ele>763.424072</ele>
        <time>2011-09-30T15:40:47Z</time>
      </trkpt>
      <trkpt lat="45.95572" lon="6.06095">
        <ele>762.943359</ele>
        <time>2011-09-30T15:40:50Z</time>
      </trkpt>
      <trkpt lat="45.9557" lon="6.06105">
        <ele>762.943359</ele>
        <time>2011-09-30T15:40:58Z</time>
      </trkpt>
      <trkpt lat="45.95571" lon="6.06121">
        <ele>760.540039</ele>
        <time>2011-09-30T15:41:08Z</time>
      </trkpt>
      <trkpt lat="45.95579" lon="6.06137">
        <ele>759.098145</ele>
        <time>2011-09-30T15:41:17Z</time>
      </trkpt>
      <trkpt lat="45.95581" lon="6.06146">
        <ele>757.175537</ele>
        <time>2011-09-30T15:41:23Z</time>
      </trkpt>
      <trkpt lat="45.95583" lon="6.06158">
        <ele>756.214111</ele>
        <time>2011-09-30T15:41:31Z</time>
      </trkpt>
      <trkpt lat="45.95583" lon="6.06167">
        <ele>755.25293</ele>
        <time>2011-09-30T15:41:39Z</time>
      </trkpt>
      <trkpt lat="45.95584" lon="6.06174">
        <ele>755.733643</ele>
        <time>2011-09-30T15:41:46Z</time>
      </trkpt>
      <trkpt lat="45.95589" lon="6.0618">
        <ele>754.772217</ele>
        <time>2011-09-30T15:41:53Z</time>
      </trkpt>
      <trkpt lat="45.95597" lon="6.0618">
        <ele>754.772217</ele>
        <time>2011-09-30T15:42:07Z</time>
      </trkpt>
      <trkpt lat="45.95605" lon="6.06178">
        <ele>754.772217</ele>
        <time>2011-09-30T15:42:22Z</time>
      </trkpt>
      <trkpt lat="45.95602" lon="6.06175">
        <ele>755.733643</ele>
        <time>2011-09-30T15:44:16Z</time>
      </trkpt>
      <trkpt lat="45.95603" lon="6.06169">
        <ele>756.214111</ele>
        <time>2011-09-30T15:44:25Z</time>
      </trkpt>
      <trkpt lat="45.95607" lon="6.06164">
        <ele>757.175537</ele>
        <time>2011-09-30T15:44:33Z</time>
      </trkpt>
      <trkpt lat="45.95609" lon="6.06154">
        <ele>757.175537</ele>
        <time>2011-09-30T15:44:42Z</time>
      </trkpt>
      <trkpt lat="45.95612" lon="6.0615">
        <ele>758.136963</ele>
        <time>2011-09-30T15:44:48Z</time>
      </trkpt>
      <trkpt lat="45.95618" lon="6.06143">
        <ele>758.617432</ele>
        <time>2011-09-30T15:44:58Z</time>
      </trkpt>
      <trkpt lat="45.95625" lon="6.06136">
        <ele>759.578857</ele>
        <time>2011-09-30T15:45:07Z</time>
      </trkpt>
      <trkpt lat="45.9563" lon="6.0613">
        <ele>758.617432</ele>
        <time>2011-09-30T15:45:13Z</time>
      </trkpt>
      <trkpt lat="45.95637" lon="6.06121">
        <ele>757.65625</ele>
        <time>2011-09-30T15:45:21Z</time>
      </trkpt>
      <trkpt lat="45.95638" lon="6.06114">
        <ele>757.65625</ele>
        <time>2011-09-30T15:45:27Z</time>
      </trkpt>
      <trkpt lat="45.95643" lon="6.06109">
        <ele>757.175537</ele>
        <time>2011-09-30T15:45:33Z</time>
      </trkpt>
      <trkpt lat="45.95648" lon="6.06103">
        <ele>756.214111</ele>
        <time>2011-09-30T15:45:41Z</time>
      </trkpt>
      <trkpt lat="45.95652" lon="6.06098">
        <ele>756.214111</ele>
        <time>2011-09-30T15:45:47Z</time>
      </trkpt>
      <trkpt lat="45.9566" lon="6.06091">
        <ele>754.772217</ele>
        <time>2011-09-30T15:45:56Z</time>
      </trkpt>
      <trkpt lat="45.9566" lon="6.06082">
        <ele>754.291748</ele>
        <time>2011-09-30T15:46:03Z</time>
      </trkpt>
      <trkpt lat="45.95664" lon="6.06071">
        <ele>754.291748</ele>
        <time>2011-09-30T15:46:11Z</time>
      </trkpt>
      <trkpt lat="45.95666" lon="6.06062">
        <ele>754.291748</ele>
        <time>2011-09-30T15:46:17Z</time>
      </trkpt>
      <trkpt lat="45.95669" lon="6.0605">
        <ele>754.291748</ele>
        <time>2011-09-30T15:46:25Z</time>
      </trkpt>
      <trkpt lat="45.95675" lon="6.06039">
        <ele>754.291748</ele>
        <time>2011-09-30T15:46:34Z</time>
      </trkpt>
      <trkpt lat="45.9568" lon="6.06025">
        <ele>753.811035</ele>
        <time>2011-09-30T15:46:43Z</time>
      </trkpt>
      <trkpt lat="45.95686" lon="6.06015">
        <ele>753.811035</ele>
        <time>2011-09-30T15:46:52Z</time>
      </trkpt>
      <trkpt lat="45.9569" lon="6.06005">
        <ele>753.330322</ele>
        <time>2011-09-30T15:47:00Z</time>
      </trkpt>
      <trkpt lat="45.95693" lon="6.05998">
        <ele>752.849609</ele>
        <time>2011-09-30T15:47:05Z</time>
      </trkpt>
      <trkpt lat="45.95698" lon="6.05988">
        <ele>752.849609</ele>
        <time>2011-09-30T15:47:12Z</time>
      </trkpt>
      <trkpt lat="45.957" lon="6.05975">
        <ele>752.849609</ele>
        <time>2011-09-30T15:47:21Z</time>
      </trkpt>
      <trkpt lat="45.95701" lon="6.0597">
        <ele>752.849609</ele>
        <time>2011-09-30T15:47:24Z</time>
      </trkpt>
      <trkpt lat="45.9571" lon="6.05955">
        <ele>752.849609</ele>
        <time>2011-09-30T15:47:35Z</time>
      </trkpt>
      <trkpt lat="45.95716" lon="6.05944">
        <ele>752.368896</ele>
        <time>2011-09-30T15:47:46Z</time>
      </trkpt>
      <trkpt lat="45.95724" lon="6.05936">
        <ele>751.888428</ele>
        <time>2011-09-30T15:47:55Z</time>
      </trkpt>
      <trkpt lat="45.95727" lon="6.05929">
        <ele>751.888428</ele>
        <time>2011-09-30T15:48:02Z</time>
      </trkpt>
      <trkpt lat="45.95732" lon="6.05919">
        <ele>751.888428</ele>
        <time>2011-09-30T15:48:11Z</time>
      </trkpt>
      <trkpt lat="45.95742" lon="6.05908">
        <ele>751.888428</ele>
        <time>2011-09-30T15:48:22Z</time>
      </trkpt>
      <trkpt lat="45.95745" lon="6.05899">
        <ele>751.407715</ele>
        <time>2011-09-30T15:48:30Z</time>
      </trkpt>
      <trkpt lat="45.95748" lon="6.05892">
        <ele>751.407715</ele>
        <time>2011-09-30T15:48:38Z</time>
      </trkpt>
      <trkpt lat="45.95756" lon="6.05885">
        <ele>751.407715</ele>
        <time>2011-09-30T15:48:45Z</time>
      </trkpt>
      <trkpt lat="45.95763" lon="6.05877">
        <ele>751.407715</ele>
        <time>2011-09-30T15:48:51Z</time>
      </trkpt>
      <trkpt lat="45.95768" lon="6.05856">
        <ele>751.407715</ele>
        <time>2011-09-30T15:49:04Z</time>
      </trkpt>
      <trkpt lat="45.9578" lon="6.05848">
        <ele>750.927002</ele>
        <time>2011-09-30T15:49:15Z</time>
      </trkpt>
      <trkpt lat="45.95783" lon="6.05847">
        <ele>750.927002</ele>
        <time>2011-09-30T15:49:18Z</time>
      </trkpt>
      <trkpt lat="45.95799" lon="6.05842">
        <ele>750.927002</ele>
        <time>2011-09-30T15:49:31Z</time>
      </trkpt>
      <trkpt lat="45.95806" lon="6.05837">
        <ele>750.927002</ele>
        <time>2011-09-30T15:49:39Z</time>
      </trkpt>
      <trkpt lat="45.95812" lon="6.05832">
        <ele>751.407715</ele>
        <time>2011-09-30T15:49:47Z</time>
      </trkpt>
      <trkpt lat="45.9582" lon="6.05826">
        <ele>751.407715</ele>
        <time>2011-09-30T15:49:57Z</time>
      </trkpt>
      <trkpt lat="45.95827" lon="6.05824">
        <ele>750.927002</ele>
        <time>2011-09-30T15:50:04Z</time>
      </trkpt>
      <trkpt lat="45.95836" lon="6.05822">
        <ele>749.004395</ele>
        <time>2011-09-30T15:50:13Z</time>
      </trkpt>
      <trkpt lat="45.95845" lon="6.05821">
        <ele>748.043213</ele>
        <time>2011-09-30T15:50:23Z</time>
      </trkpt>
      <trkpt lat="45.95854" lon="6.05821">
        <ele>748.043213</ele>
        <time>2011-09-30T15:50:32Z</time>
      </trkpt>
      <trkpt lat="45.95862" lon="6.05815">
        <ele>747.562256</ele>
        <time>2011-09-30T15:50:40Z</time>
      </trkpt>
      <trkpt lat="45.9586" lon="6.05804">
        <ele>746.601074</ele>
        <time>2011-09-30T15:50:48Z</time>
      </trkpt>
      <trkpt lat="45.95862" lon="6.05793">
        <ele>746.120361</ele>
        <time>2011-09-30T15:50:56Z</time>
      </trkpt>
      <trkpt lat="45.95865" lon="6.05781">
        <ele>746.120361</ele>
        <time>2011-09-30T15:51:05Z</time>
      </trkpt>
      <trkpt lat="45.95867" lon="6.05769">
        <ele>744.197754</ele>
        <time>2011-09-30T15:51:15Z</time>
      </trkpt>
      <trkpt lat="45.95876" lon="6.05762">
        <ele>741.794434</ele>
        <time>2011-09-30T15:51:26Z</time>
      </trkpt>
      <trkpt lat="45.95882" lon="6.05759">
        <ele>741.794434</ele>
        <time>2011-09-30T15:51:33Z</time>
      </trkpt>
      <trkpt lat="45.95885" lon="6.05759">
        <ele>740.833008</ele>
        <time>2011-09-30T15:51:39Z</time>
      </trkpt>
      <trkpt lat="45.95894" lon="6.05756">
        <ele>739.391113</ele>
        <time>2011-09-30T15:51:48Z</time>
      </trkpt>
      <trkpt lat="45.95902" lon="6.05751">
        <ele>739.391113</ele>
        <time>2011-09-30T15:51:57Z</time>
      </trkpt>
      <trkpt lat="45.95914" lon="6.05749">
        <ele>738.429932</ele>
        <time>2011-09-30T15:52:07Z</time>
      </trkpt>
      <trkpt lat="45.95919" lon="6.05746">
        <ele>737.949219</ele>
        <time>2011-09-30T15:52:14Z</time>
      </trkpt>
      <trkpt lat="45.95925" lon="6.05742">
        <ele>736.987793</ele>
        <time>2011-09-30T15:52:22Z</time>
      </trkpt>
      <trkpt lat="45.95943" lon="6.05741">
        <ele>736.026611</ele>
        <time>2011-09-30T15:52:39Z</time>
      </trkpt>
      <trkpt lat="45.95949" lon="6.05741">
        <ele>735.545898</ele>
        <time>2011-09-30T15:52:46Z</time>
      </trkpt>
      <trkpt lat="45.95954" lon="6.05741">
        <ele>734.104004</ele>
        <time>2011-09-30T15:52:53Z</time>
      </trkpt>
      <trkpt lat="45.95961" lon="6.0574">
        <ele>733.623291</ele>
        <time>2011-09-30T15:53:01Z</time>
      </trkpt>
      <trkpt lat="45.95967" lon="6.05736">
        <ele>731.700439</ele>
        <time>2011-09-30T15:53:10Z</time>
      </trkpt>
      <trkpt lat="45.9597" lon="6.05732">
        <ele>731.700439</ele>
        <time>2011-09-30T15:53:23Z</time>
      </trkpt>
      <trkpt lat="45.9597" lon="6.05723">
        <ele>730.739258</ele>
        <time>2011-09-30T15:53:32Z</time>
      </trkpt>
      <trkpt lat="45.9597" lon="6.05716">
        <ele>729.777832</ele>
        <time>2011-09-30T15:53:38Z</time>
      </trkpt>
      <trkpt lat="45.9597" lon="6.05709">
        <ele>728.335938</ele>
        <time>2011-09-30T15:53:44Z</time>
      </trkpt>
      <trkpt lat="45.95971" lon="6.05699">
        <ele>727.855225</ele>
        <time>2011-09-30T15:53:51Z</time>
      </trkpt>
      <trkpt lat="45.95971" lon="6.05693">
        <ele>727.374756</ele>
        <time>2011-09-30T15:53:57Z</time>
      </trkpt>
      <trkpt lat="45.95966" lon="6.05682">
        <ele>724.971436</ele>
        <time>2011-09-30T15:54:06Z</time>
      </trkpt>
      <trkpt lat="45.95966" lon="6.05676">
        <ele>724.490723</ele>
        <time>2011-09-30T15:54:12Z</time>
      </trkpt>
      <trkpt lat="45.95969" lon="6.05665">
        <ele>723.529541</ele>
        <time>2011-09-30T15:54:21Z</time>
      </trkpt>
      <trkpt lat="45.95971" lon="6.05653">
        <ele>723.529541</ele>
        <time>2011-09-30T15:54:30Z</time>
      </trkpt>
      <trkpt lat="45.95976" lon="6.05645">
        <ele>723.048828</ele>
        <time>2011-09-30T15:54:38Z</time>
      </trkpt>
      <trkpt lat="45.95981" lon="6.05636">
        <ele>723.048828</ele>
        <time>2011-09-30T15:54:46Z</time>
      </trkpt>
      <trkpt lat="45.9598" lon="6.05626">
        <ele>722.568115</ele>
        <time>2011-09-30T15:54:54Z</time>
      </trkpt>
      <trkpt lat="45.95983" lon="6.05616">
        <ele>722.087402</ele>
        <time>2011-09-30T15:55:02Z</time>
      </trkpt>
      <trkpt lat="45.9599" lon="6.05609">
        <ele>722.087402</ele>
        <time>2011-09-30T15:55:09Z</time>
      </trkpt>
      <trkpt lat="45.95998" lon="6.05601">
        <ele>721.606689</ele>
        <time>2011-09-30T15:55:19Z</time>
      </trkpt>
      <trkpt lat="45.96005" lon="6.05597">
        <ele>721.606689</ele>
        <time>2011-09-30T15:55:25Z</time>
      </trkpt>
      <trkpt lat="45.96013" lon="6.05593">
        <ele>720.164795</ele>
        <time>2011-09-30T15:55:33Z</time>
      </trkpt>
      <trkpt lat="45.96023" lon="6.05591">
        <ele>718.242188</ele>
        <time>2011-09-30T15:55:44Z</time>
      </trkpt>
      <trkpt lat="45.96029" lon="6.05591">
        <ele>717.761475</ele>
        <time>2011-09-30T15:55:50Z</time>
      </trkpt>
      <trkpt lat="45.96031" lon="6.05589">
        <ele>716.31958</ele>
        <time>2011-09-30T15:55:58Z</time>
      </trkpt>
      <trkpt lat="45.96036" lon="6.05582">
        <ele>715.358154</ele>
        <time>2011-09-30T15:56:06Z</time>
      </trkpt>
      <trkpt lat="45.96042" lon="6.05574">
        <ele>715.358154</ele>
        <time>2011-09-30T15:56:15Z</time>
      </trkpt>
      <trkpt lat="45.96049" lon="6.05569">
        <ele>714.877441</ele>
        <time>2011-09-30T15:56:24Z</time>
      </trkpt>
      <trkpt lat="45.96054" lon="6.05561">
        <ele>715.358154</ele>
        <time>2011-09-30T15:56:32Z</time>
      </trkpt>
      <trkpt lat="45.96059" lon="6.05555">
        <ele>714.877441</ele>
        <time>2011-09-30T15:56:39Z</time>
      </trkpt>
      <trkpt lat="45.96065" lon="6.05541">
        <ele>714.877441</ele>
        <time>2011-09-30T15:56:48Z</time>
      </trkpt>
      <trkpt lat="45.96065" lon="6.05533">
        <ele>713.916016</ele>
        <time>2011-09-30T15:56:55Z</time>
      </trkpt>
      <trkpt lat="45.96065" lon="6.05523">
        <ele>713.435547</ele>
        <time>2011-09-30T15:57:03Z</time>
      </trkpt>
      <trkpt lat="45.96067" lon="6.05513">
        <ele>713.435547</ele>
        <time>2011-09-30T15:57:11Z</time>
      </trkpt>
      <trkpt lat="45.96071" lon="6.05507">
        <ele>711.993652</ele>
        <time>2011-09-30T15:57:17Z</time>
      </trkpt>
      <trkpt lat="45.96072" lon="6.05497">
        <ele>711.512939</ele>
        <time>2011-09-30T15:57:25Z</time>
      </trkpt>
      <trkpt lat="45.96077" lon="6.05491">
        <ele>711.032227</ele>
        <time>2011-09-30T15:57:32Z</time>
      </trkpt>
      <trkpt lat="45.96083" lon="6.05477">
        <ele>711.512939</ele>
        <time>2011-09-30T15:57:42Z</time>
      </trkpt>
      <trkpt lat="45.96084" lon="6.05467">
        <ele>711.032227</ele>
        <time>2011-09-30T15:57:49Z</time>
      </trkpt>
      <trkpt lat="45.9609" lon="6.05457">
        <ele>710.070801</ele>
        <time>2011-09-30T15:57:58Z</time>
      </trkpt>
      <trkpt lat="45.96096" lon="6.0545">
        <ele>710.070801</ele>
        <time>2011-09-30T15:58:07Z</time>
      </trkpt>
      <trkpt lat="45.96104" lon="6.05448">
        <ele>709.590332</ele>
        <time>2011-09-30T15:58:14Z</time>
      </trkpt>
      <trkpt lat="45.96113" lon="6.0544">
        <ele>709.590332</ele>
        <time>2011-09-30T15:58:26Z</time>
      </trkpt>
      <trkpt lat="45.9612" lon="6.05437">
        <ele>710.070801</ele>
        <time>2011-09-30T15:58:33Z</time>
      </trkpt>
      <trkpt lat="45.96128" lon="6.05434">
        <ele>709.109619</ele>
        <time>2011-09-30T15:58:39Z</time>
      </trkpt>
      <trkpt lat="45.96134" lon="6.05433">
        <ele>709.590332</ele>
        <time>2011-09-30T15:58:46Z</time>
      </trkpt>
      <trkpt lat="45.96142" lon="6.05433">
        <ele>709.109619</ele>
        <time>2011-09-30T15:58:54Z</time>
      </trkpt>
      <trkpt lat="45.96149" lon="6.05437">
        <ele>709.590332</ele>
        <time>2011-09-30T15:59:03Z</time>
      </trkpt>
      <trkpt lat="45.96154" lon="6.05437">
        <ele>710.070801</ele>
        <time>2011-09-30T15:59:12Z</time>
      </trkpt>
      <trkpt lat="45.96156" lon="6.05436">
        <ele>709.590332</ele>
        <time>2011-09-30T15:59:23Z</time>
      </trkpt>
      <trkpt lat="45.96158" lon="6.05434">
        <ele>710.070801</ele>
        <time>2011-09-30T15:59:40Z</time>
      </trkpt>
      <trkpt lat="45.96164" lon="6.0544">
        <ele>709.109619</ele>
        <time>2011-09-30T15:59:51Z</time>
      </trkpt>
      <trkpt lat="45.96169" lon="6.05444">
        <ele>709.590332</ele>
        <time>2011-09-30T16:00:00Z</time>
      </trkpt>
      <trkpt lat="45.96172" lon="6.0545">
        <ele>710.070801</ele>
        <time>2011-09-30T16:00:08Z</time>
      </trkpt>
      <trkpt lat="45.96176" lon="6.05454">
        <ele>709.590332</ele>
        <time>2011-09-30T16:00:17Z</time>
      </trkpt>
      <trkpt lat="45.9618" lon="6.05458">
        <ele>709.590332</ele>
        <time>2011-09-30T16:00:22Z</time>
      </trkpt>
      <trkpt lat="45.96185" lon="6.05461">
        <ele>710.551514</ele>
        <time>2011-09-30T16:00:29Z</time>
      </trkpt>
      <trkpt lat="45.96193" lon="6.05468">
        <ele>711.512939</ele>
        <time>2011-09-30T16:00:39Z</time>
      </trkpt>
      <trkpt lat="45.96194" lon="6.05472">
        <ele>711.512939</ele>
        <time>2011-09-30T16:00:46Z</time>
      </trkpt>
      <trkpt lat="45.96197" lon="6.05479">
        <ele>711.512939</ele>
        <time>2011-09-30T16:00:52Z</time>
      </trkpt>
      <trkpt lat="45.96202" lon="6.05492">
        <ele>711.993652</ele>
        <time>2011-09-30T16:01:02Z</time>
      </trkpt>
      <trkpt lat="45.96203" lon="6.05498">
        <ele>711.993652</ele>
        <time>2011-09-30T16:01:07Z</time>
      </trkpt>
      <trkpt lat="45.96203" lon="6.05509">
        <ele>711.993652</ele>
        <time>2011-09-30T16:01:15Z</time>
      </trkpt>
      <trkpt lat="45.96204" lon="6.05516">
        <ele>711.993652</ele>
        <time>2011-09-30T16:01:20Z</time>
      </trkpt>
      <trkpt lat="45.96208" lon="6.05526">
        <ele>712.474121</ele>
        <time>2011-09-30T16:01:28Z</time>
      </trkpt>
      <trkpt lat="45.96211" lon="6.05537">
        <ele>711.993652</ele>
        <time>2011-09-30T16:01:36Z</time>
      </trkpt>
      <trkpt lat="45.9621" lon="6.05544">
        <ele>712.474121</ele>
        <time>2011-09-30T16:01:42Z</time>
      </trkpt>
      <trkpt lat="45.96211" lon="6.05552">
        <ele>713.435547</ele>
        <time>2011-09-30T16:01:49Z</time>
      </trkpt>
      <trkpt lat="45.96217" lon="6.05571">
        <ele>713.435547</ele>
        <time>2011-09-30T16:02:26Z</time>
      </trkpt>
      <trkpt lat="45.9622" lon="6.05578">
        <ele>714.396729</ele>
        <time>2011-09-30T16:02:32Z</time>
      </trkpt>
      <trkpt lat="45.96222" lon="6.05593">
        <ele>712.474121</ele>
        <time>2011-09-30T16:11:39Z</time>
      </trkpt>
      <trkpt lat="45.96227" lon="6.05599">
        <ele>712.474121</ele>
        <time>2011-09-30T16:11:47Z</time>
      </trkpt>
      <trkpt lat="45.96231" lon="6.05603">
        <ele>712.474121</ele>
        <time>2011-09-30T16:11:55Z</time>
      </trkpt>
      <trkpt lat="45.96236" lon="6.05611">
        <ele>712.474121</ele>
        <time>2011-09-30T16:12:05Z</time>
      </trkpt>
      <trkpt lat="45.96243" lon="6.05622">
        <ele>712.474121</ele>
        <time>2011-09-30T16:12:14Z</time>
      </trkpt>
      <trkpt lat="45.96245" lon="6.05634">
        <ele>712.474121</ele>
        <time>2011-09-30T16:12:23Z</time>
      </trkpt>
      <trkpt lat="45.96248" lon="6.05645">
        <ele>711.993652</ele>
        <time>2011-09-30T16:12:31Z</time>
      </trkpt>
      <trkpt lat="45.9625" lon="6.05648">
        <ele>711.993652</ele>
        <time>2011-09-30T16:12:34Z</time>
      </trkpt>
      <trkpt lat="45.96255" lon="6.05656">
        <ele>712.954834</ele>
        <time>2011-09-30T16:12:43Z</time>
      </trkpt>
      <trkpt lat="45.96261" lon="6.05667">
        <ele>712.474121</ele>
        <time>2011-09-30T16:12:51Z</time>
      </trkpt>
      <trkpt lat="45.96267" lon="6.0568">
        <ele>711.993652</ele>
        <time>2011-09-30T16:13:02Z</time>
      </trkpt>
      <trkpt lat="45.96274" lon="6.05688">
        <ele>711.993652</ele>
        <time>2011-09-30T16:13:11Z</time>
      </trkpt>
      <trkpt lat="45.96278" lon="6.05695">
        <ele>711.993652</ele>
        <time>2011-09-30T16:13:19Z</time>
      </trkpt>
      <trkpt lat="45.96284" lon="6.05698">
        <ele>711.512939</ele>
        <time>2011-09-30T16:13:28Z</time>
      </trkpt>
      <trkpt lat="45.96288" lon="6.05706">
        <ele>711.512939</ele>
        <time>2011-09-30T16:13:36Z</time>
      </trkpt>
      <trkpt lat="45.9629" lon="6.05715">
        <ele>711.993652</ele>
        <time>2011-09-30T16:13:44Z</time>
      </trkpt>
      <trkpt lat="45.96297" lon="6.05727">
        <ele>711.993652</ele>
        <time>2011-09-30T16:13:53Z</time>
      </trkpt>
      <trkpt lat="45.96302" lon="6.05738">
        <ele>711.512939</ele>
        <time>2011-09-30T16:14:02Z</time>
      </trkpt>
      <trkpt lat="45.96307" lon="6.05748">
        <ele>711.993652</ele>
        <time>2011-09-30T16:14:12Z</time>
      </trkpt>
      <trkpt lat="45.96311" lon="6.05759">
        <ele>711.993652</ele>
        <time>2011-09-30T16:14:20Z</time>
      </trkpt>
      <trkpt lat="45.96314" lon="6.05768">
        <ele>711.993652</ele>
        <time>2011-09-30T16:14:27Z</time>
      </trkpt>
      <trkpt lat="45.96318" lon="6.05777">
        <ele>712.474121</ele>
        <time>2011-09-30T16:14:35Z</time>
      </trkpt>
      <trkpt lat="45.96324" lon="6.05789">
        <ele>711.993652</ele>
        <time>2011-09-30T16:14:43Z</time>
      </trkpt>
      <trkpt lat="45.96327" lon="6.05796">
        <ele>711.512939</ele>
        <time>2011-09-30T16:14:49Z</time>
      </trkpt>
      <trkpt lat="45.96326" lon="6.05807">
        <ele>711.512939</ele>
        <time>2011-09-30T16:14:57Z</time>
      </trkpt>
      <trkpt lat="45.96328" lon="6.05818">
        <ele>711.032227</ele>
        <time>2011-09-30T16:15:03Z</time>
      </trkpt>
      <trkpt lat="45.9633" lon="6.05831">
        <ele>711.512939</ele>
        <time>2011-09-30T16:15:12Z</time>
      </trkpt>
      <trkpt lat="45.96331" lon="6.05842">
        <ele>711.512939</ele>
        <time>2011-09-30T16:15:20Z</time>
      </trkpt>
      <trkpt lat="45.96336" lon="6.05856">
        <ele>711.032227</ele>
        <time>2011-09-30T16:15:29Z</time>
      </trkpt>
      <trkpt lat="45.96339" lon="6.05865">
        <ele>711.032227</ele>
        <time>2011-09-30T16:15:36Z</time>
      </trkpt>
      <trkpt lat="45.96345" lon="6.05874">
        <ele>711.512939</ele>
        <time>2011-09-30T16:15:43Z</time>
      </trkpt>
      <trkpt lat="45.96349" lon="6.05884">
        <ele>711.512939</ele>
        <time>2011-09-30T16:15:52Z</time>
      </trkpt>
      <trkpt lat="45.96351" lon="6.05894">
        <ele>711.993652</ele>
        <time>2011-09-30T16:15:59Z</time>
      </trkpt>
      <trkpt lat="45.96354" lon="6.05902">
        <ele>712.474121</ele>
        <time>2011-09-30T16:16:06Z</time>
      </trkpt>
      <trkpt lat="45.96355" lon="6.0591">
        <ele>711.993652</ele>
        <time>2011-09-30T16:16:12Z</time>
      </trkpt>
      <trkpt lat="45.96358" lon="6.0592">
        <ele>711.032227</ele>
        <time>2011-09-30T16:16:20Z</time>
      </trkpt>
      <trkpt lat="45.96362" lon="6.05925">
        <ele>711.032227</ele>
        <time>2011-09-30T16:16:25Z</time>
      </trkpt>
      <trkpt lat="45.96367" lon="6.05933">
        <ele>711.032227</ele>
        <time>2011-09-30T16:16:32Z</time>
      </trkpt>
      <trkpt lat="45.96372" lon="6.05938">
        <ele>711.032227</ele>
        <time>2011-09-30T16:16:38Z</time>
      </trkpt>
      <trkpt lat="45.9638" lon="6.05939">
        <ele>711.032227</ele>
        <time>2011-09-30T16:16:45Z</time>
      </trkpt>
      <trkpt lat="45.96391" lon="6.05939">
        <ele>711.032227</ele>
        <time>2011-09-30T16:16:55Z</time>
      </trkpt>
      <trkpt lat="45.96399" lon="6.05938">
        <ele>711.032227</ele>
        <time>2011-09-30T16:17:03Z</time>
      </trkpt>
      <trkpt lat="45.96406" lon="6.05936">
        <ele>711.512939</ele>
        <time>2011-09-30T16:17:11Z</time>
      </trkpt>
      <trkpt lat="45.96415" lon="6.05934">
        <ele>711.993652</ele>
        <time>2011-09-30T16:17:21Z</time>
      </trkpt>
      <trkpt lat="45.96419" lon="6.05934">
        <ele>711.993652</ele>
        <time>2011-09-30T16:17:29Z</time>
      </trkpt>
      <trkpt lat="45.96418" lon="6.0594">
        <ele>712.474121</ele>
        <time>2011-09-30T16:19:12Z</time>
      </trkpt>
      <trkpt lat="45.96416" lon="6.05948">
        <ele>712.954834</ele>
        <time>2011-09-30T16:19:20Z</time>
      </trkpt>
      <trkpt lat="45.96413" lon="6.05959">
        <ele>713.435547</ele>
        <time>2011-09-30T16:19:29Z</time>
      </trkpt>
      <trkpt lat="45.96408" lon="6.05962">
        <ele>713.916016</ele>
        <time>2011-09-30T16:19:37Z</time>
      </trkpt>
      <trkpt lat="45.96404" lon="6.05967">
        <ele>713.435547</ele>
        <time>2011-09-30T16:19:44Z</time>
      </trkpt>
      <trkpt lat="45.96397" lon="6.05969">
        <ele>714.396729</ele>
        <time>2011-09-30T16:19:51Z</time>
      </trkpt>
      <trkpt lat="45.96392" lon="6.05972">
        <ele>714.396729</ele>
        <time>2011-09-30T16:19:59Z</time>
      </trkpt>
      <trkpt lat="45.96382" lon="6.05971">
        <ele>714.396729</ele>
        <time>2011-09-30T16:20:08Z</time>
      </trkpt>
      <trkpt lat="45.96379" lon="6.05972">
        <ele>714.396729</ele>
        <time>2011-09-30T16:20:13Z</time>
      </trkpt>
      <trkpt lat="45.96371" lon="6.05973">
        <ele>713.916016</ele>
        <time>2011-09-30T16:20:22Z</time>
      </trkpt>
      <trkpt lat="45.96363" lon="6.05975">
        <ele>714.396729</ele>
        <time>2011-09-30T16:20:31Z</time>
      </trkpt>
      <trkpt lat="45.96354" lon="6.05977">
        <ele>714.396729</ele>
        <time>2011-09-30T16:20:41Z</time>
      </trkpt>
      <trkpt lat="45.96347" lon="6.05978">
        <ele>714.877441</ele>
        <time>2011-09-30T16:20:49Z</time>
      </trkpt>
      <trkpt lat="45.96342" lon="6.05984">
        <ele>715.838867</ele>
        <time>2011-09-30T16:20:57Z</time>
      </trkpt>
      <trkpt lat="45.96336" lon="6.05992">
        <ele>715.838867</ele>
        <time>2011-09-30T16:21:07Z</time>
      </trkpt>
      <trkpt lat="45.9633" lon="6.05996">
        <ele>717.281006</ele>
        <time>2011-09-30T16:21:14Z</time>
      </trkpt>
      <trkpt lat="45.96327" lon="6.06001">
        <ele>717.761475</ele>
        <time>2011-09-30T16:21:22Z</time>
      </trkpt>
      <trkpt lat="45.96319" lon="6.06005">
        <ele>719.203613</ele>
        <time>2011-09-30T16:21:31Z</time>
      </trkpt>
      <trkpt lat="45.96313" lon="6.06011">
        <ele>719.684326</ele>
        <time>2011-09-30T16:21:38Z</time>
      </trkpt>
      <trkpt lat="45.96309" lon="6.06018">
        <ele>721.126221</ele>
        <time>2011-09-30T16:21:48Z</time>
      </trkpt>
      <trkpt lat="45.96307" lon="6.06026">
        <ele>721.606689</ele>
        <time>2011-09-30T16:21:55Z</time>
      </trkpt>
      <trkpt lat="45.96303" lon="6.06037">
        <ele>722.087402</ele>
        <time>2011-09-30T16:22:04Z</time>
      </trkpt>
      <trkpt lat="45.96301" lon="6.06043">
        <ele>722.568115</ele>
        <time>2011-09-30T16:22:12Z</time>
      </trkpt>
      <trkpt lat="45.96297" lon="6.06048">
        <ele>723.048828</ele>
        <time>2011-09-30T16:22:20Z</time>
      </trkpt>
      <trkpt lat="45.96295" lon="6.06058">
        <ele>724.01001</ele>
        <time>2011-09-30T16:22:29Z</time>
      </trkpt>
      <trkpt lat="45.96289" lon="6.06059">
        <ele>724.490723</ele>
        <time>2011-09-30T16:22:37Z</time>
      </trkpt>
      <trkpt lat="45.96283" lon="6.0605">
        <ele>725.451904</ele>
        <time>2011-09-30T16:22:48Z</time>
      </trkpt>
      <trkpt lat="45.96284" lon="6.06042">
        <ele>725.932617</ele>
        <time>2011-09-30T16:22:58Z</time>
      </trkpt>
      <trkpt lat="45.96283" lon="6.06032">
        <ele>726.894043</ele>
        <time>2011-09-30T16:23:08Z</time>
      </trkpt>
      <trkpt lat="45.96281" lon="6.06023">
        <ele>727.374756</ele>
        <time>2011-09-30T16:23:16Z</time>
      </trkpt>
      <trkpt lat="45.96277" lon="6.0601">
        <ele>727.855225</ele>
        <time>2011-09-30T16:23:27Z</time>
      </trkpt>
      <trkpt lat="45.96271" lon="6.06004">
        <ele>727.374756</ele>
        <time>2011-09-30T16:23:34Z</time>
      </trkpt>
      <trkpt lat="45.96268" lon="6.06">
        <ele>728.81665</ele>
        <time>2011-09-30T16:23:43Z</time>
      </trkpt>
      <trkpt lat="45.96263" lon="6.05997">
        <ele>729.777832</ele>
        <time>2011-09-30T16:23:51Z</time>
      </trkpt>
      <trkpt lat="45.96259" lon="6.05996">
        <ele>730.258545</ele>
        <time>2011-09-30T16:23:58Z</time>
      </trkpt>
      <trkpt lat="45.96254" lon="6.06">
        <ele>731.219971</ele>
        <time>2011-09-30T16:24:05Z</time>
      </trkpt>
      <trkpt lat="45.9625" lon="6.06005">
        <ele>731.219971</ele>
        <time>2011-09-30T16:24:12Z</time>
      </trkpt>
      <trkpt lat="45.96245" lon="6.06011">
        <ele>732.181396</ele>
        <time>2011-09-30T16:24:19Z</time>
      </trkpt>
      <trkpt lat="45.96243" lon="6.06019">
        <ele>732.662109</ele>
        <time>2011-09-30T16:24:27Z</time>
      </trkpt>
      <trkpt lat="45.9624" lon="6.06025">
        <ele>733.623291</ele>
        <time>2011-09-30T16:24:34Z</time>
      </trkpt>
      <trkpt lat="45.96235" lon="6.06032">
        <ele>733.623291</ele>
        <time>2011-09-30T16:24:43Z</time>
      </trkpt>
      <trkpt lat="45.96229" lon="6.06038">
        <ele>734.584717</ele>
        <time>2011-09-30T16:24:51Z</time>
      </trkpt>
      <trkpt lat="45.96226" lon="6.06045">
        <ele>735.06543</ele>
        <time>2011-09-30T16:24:58Z</time>
      </trkpt>
      <trkpt lat="45.96222" lon="6.06052">
        <ele>736.026611</ele>
        <time>2011-09-30T16:25:06Z</time>
      </trkpt>
      <trkpt lat="45.96218" lon="6.06059">
        <ele>736.026611</ele>
        <time>2011-09-30T16:25:14Z</time>
      </trkpt>
      <trkpt lat="45.96212" lon="6.06065">
        <ele>736.507324</ele>
        <time>2011-09-30T16:25:22Z</time>
      </trkpt>
      <trkpt lat="45.96206" lon="6.06071">
        <ele>736.507324</ele>
        <time>2011-09-30T16:25:29Z</time>
      </trkpt>
      <trkpt lat="45.96202" lon="6.06077">
        <ele>736.987793</ele>
        <time>2011-09-30T16:25:36Z</time>
      </trkpt>
      <trkpt lat="45.96198" lon="6.06081">
        <ele>737.468506</ele>
        <time>2011-09-30T16:25:42Z</time>
      </trkpt>
      <trkpt lat="45.96194" lon="6.06084">
        <ele>737.949219</ele>
        <time>2011-09-30T16:25:48Z</time>
      </trkpt>
      <trkpt lat="45.9619" lon="6.06088">
        <ele>738.429932</ele>
        <time>2011-09-30T16:25:55Z</time>
      </trkpt>
      <trkpt lat="45.96188" lon="6.06092">
        <ele>739.391113</ele>
        <time>2011-09-30T16:26:01Z</time>
      </trkpt>
      <trkpt lat="45.96185" lon="6.06096">
        <ele>739.391113</ele>
        <time>2011-09-30T16:26:09Z</time>
      </trkpt>
      <trkpt lat="45.9618" lon="6.06107">
        <ele>739.391113</ele>
        <time>2011-09-30T16:29:56Z</time>
      </trkpt>
      <trkpt lat="45.96176" lon="6.06115">
        <ele>741.313721</ele>
        <time>2011-09-30T16:31:06Z</time>
      </trkpt>
      <trkpt lat="45.96173" lon="6.06119">
        <ele>741.313721</ele>
        <time>2011-09-30T16:31:14Z</time>
      </trkpt>
      <trkpt lat="45.96163" lon="6.06128">
        <ele>741.794434</ele>
        <time>2011-09-30T16:31:24Z</time>
      </trkpt>
      <trkpt lat="45.96158" lon="6.06139">
        <ele>741.313721</ele>
        <time>2011-09-30T16:31:33Z</time>
      </trkpt>
      <trkpt lat="45.96155" lon="6.06145">
        <ele>741.313721</ele>
        <time>2011-09-30T16:31:39Z</time>
      </trkpt>
      <trkpt lat="45.96152" lon="6.06151">
        <ele>741.313721</ele>
        <time>2011-09-30T16:31:45Z</time>
      </trkpt>
      <trkpt lat="45.9615" lon="6.06157">
        <ele>741.313721</ele>
        <time>2011-09-30T16:31:51Z</time>
      </trkpt>
      <trkpt lat="45.96148" lon="6.06164">
        <ele>741.313721</ele>
        <time>2011-09-30T16:31:57Z</time>
      </trkpt>
      <trkpt lat="45.96145" lon="6.06172">
        <ele>741.313721</ele>
        <time>2011-09-30T16:32:04Z</time>
      </trkpt>
      <trkpt lat="45.96143" lon="6.06179">
        <ele>741.313721</ele>
        <time>2011-09-30T16:32:11Z</time>
      </trkpt>
      <trkpt lat="45.9614" lon="6.06183">
        <ele>741.794434</ele>
        <time>2011-09-30T16:32:17Z</time>
      </trkpt>
      <trkpt lat="45.96139" lon="6.0619">
        <ele>741.794434</ele>
        <time>2011-09-30T16:32:23Z</time>
      </trkpt>
      <trkpt lat="45.96132" lon="6.06195">
        <ele>741.313721</ele>
        <time>2011-09-30T16:32:30Z</time>
      </trkpt>
      <trkpt lat="45.96125" lon="6.06205">
        <ele>741.313721</ele>
        <time>2011-09-30T16:32:39Z</time>
      </trkpt>
      <trkpt lat="45.96116" lon="6.06217">
        <ele>741.794434</ele>
        <time>2011-09-30T16:32:49Z</time>
      </trkpt>
      <trkpt lat="45.96111" lon="6.06226">
        <ele>742.275146</ele>
        <time>2011-09-30T16:32:58Z</time>
      </trkpt>
      <trkpt lat="45.96106" lon="6.06232">
        <ele>742.275146</ele>
        <time>2011-09-30T16:33:06Z</time>
      </trkpt>
      <trkpt lat="45.96101" lon="6.06242">
        <ele>742.755859</ele>
        <time>2011-09-30T16:33:16Z</time>
      </trkpt>
      <trkpt lat="45.96095" lon="6.06255">
        <ele>743.717041</ele>
        <time>2011-09-30T16:33:27Z</time>
      </trkpt>
      <trkpt lat="45.9609" lon="6.06275">
        <ele>744.678223</ele>
        <time>2011-09-30T16:33:38Z</time>
      </trkpt>
      <trkpt lat="45.96086" lon="6.06288">
        <ele>745.639648</ele>
        <time>2011-09-30T16:33:48Z</time>
      </trkpt>
      <trkpt lat="45.96081" lon="6.06297">
        <ele>746.601074</ele>
        <time>2011-09-30T16:33:57Z</time>
      </trkpt>
      <trkpt lat="45.96076" lon="6.06306">
        <ele>748.523682</ele>
        <time>2011-09-30T16:34:07Z</time>
      </trkpt>
      <trkpt lat="45.96072" lon="6.06312">
        <ele>749.485107</ele>
        <time>2011-09-30T16:34:16Z</time>
      </trkpt>
      <trkpt lat="45.96069" lon="6.06315">
        <ele>750.927002</ele>
        <time>2011-09-30T16:34:24Z</time>
      </trkpt>
      <trkpt lat="45.96065" lon="6.06321">
        <ele>751.407715</ele>
        <time>2011-09-30T16:34:32Z</time>
      </trkpt>
      <trkpt lat="45.96059" lon="6.06328">
        <ele>751.888428</ele>
        <time>2011-09-30T16:34:40Z</time>
      </trkpt>
      <trkpt lat="45.96053" lon="6.06337">
        <ele>752.849609</ele>
        <time>2011-09-30T16:34:50Z</time>
      </trkpt>
      <trkpt lat="45.96051" lon="6.06343">
        <ele>753.811035</ele>
        <time>2011-09-30T16:34:59Z</time>
      </trkpt>
      <trkpt lat="45.96045" lon="6.06349">
        <ele>754.772217</ele>
        <time>2011-09-30T16:35:06Z</time>
      </trkpt>
      <trkpt lat="45.96044" lon="6.06356">
        <ele>754.772217</ele>
        <time>2011-09-30T16:35:13Z</time>
      </trkpt>
      <trkpt lat="45.96048" lon="6.06364">
        <ele>755.733643</ele>
        <time>2011-09-30T16:35:19Z</time>
      </trkpt>
      <trkpt lat="45.96049" lon="6.06371">
        <ele>755.733643</ele>
        <time>2011-09-30T16:35:26Z</time>
      </trkpt>
      <trkpt lat="45.96048" lon="6.06384">
        <ele>756.214111</ele>
        <time>2011-09-30T16:35:35Z</time>
      </trkpt>
      <trkpt lat="45.96045" lon="6.0639">
        <ele>756.214111</ele>
        <time>2011-09-30T16:35:43Z</time>
      </trkpt>
      <trkpt lat="45.96043" lon="6.06398">
        <ele>756.214111</ele>
        <time>2011-09-30T16:35:51Z</time>
      </trkpt>
      <trkpt lat="45.96039" lon="6.06408">
        <ele>756.214111</ele>
        <time>2011-09-30T16:36:00Z</time>
      </trkpt>
      <trkpt lat="45.96035" lon="6.06419">
        <ele>756.214111</ele>
        <time>2011-09-30T16:36:11Z</time>
      </trkpt>
      <trkpt lat="45.96029" lon="6.06433">
        <ele>756.694824</ele>
        <time>2011-09-30T16:36:21Z</time>
      </trkpt>
      <trkpt lat="45.9603" lon="6.06441">
        <ele>756.214111</ele>
        <time>2011-09-30T16:36:29Z</time>
      </trkpt>
      <trkpt lat="45.96029" lon="6.06455">
        <ele>755.733643</ele>
        <time>2011-09-30T16:37:56Z</time>
      </trkpt>
      <trkpt lat="45.9603" lon="6.0646">
        <ele>755.25293</ele>
        <time>2011-09-30T16:38:06Z</time>
      </trkpt>
      <trkpt lat="45.96031" lon="6.06468">
        <ele>755.25293</ele>
        <time>2011-09-30T16:38:13Z</time>
      </trkpt>
      <trkpt lat="45.96035" lon="6.06478">
        <ele>754.291748</ele>
        <time>2011-09-30T16:38:20Z</time>
      </trkpt>
      <trkpt lat="45.96034" lon="6.06484">
        <ele>754.291748</ele>
        <time>2011-09-30T16:38:26Z</time>
      </trkpt>
      <trkpt lat="45.96038" lon="6.06494">
        <ele>753.330322</ele>
        <time>2011-09-30T16:38:34Z</time>
      </trkpt>
      <trkpt lat="45.96043" lon="6.06499">
        <ele>753.330322</ele>
        <time>2011-09-30T16:38:40Z</time>
      </trkpt>
      <trkpt lat="45.96049" lon="6.0651">
        <ele>752.368896</ele>
        <time>2011-09-30T16:38:51Z</time>
      </trkpt>
      <trkpt lat="45.96057" lon="6.06522">
        <ele>752.368896</ele>
        <time>2011-09-30T16:39:02Z</time>
      </trkpt>
      <trkpt lat="45.96064" lon="6.06534">
        <ele>752.368896</ele>
        <time>2011-09-30T16:39:13Z</time>
      </trkpt>
      <trkpt lat="45.96069" lon="6.0654">
        <ele>751.888428</ele>
        <time>2011-09-30T16:39:22Z</time>
      </trkpt>
      <trkpt lat="45.96076" lon="6.06549">
        <ele>752.368896</ele>
        <time>2011-09-30T16:39:31Z</time>
      </trkpt>
      <trkpt lat="45.9608" lon="6.06556">
        <ele>751.888428</ele>
        <time>2011-09-30T16:39:39Z</time>
      </trkpt>
      <trkpt lat="45.96083" lon="6.06564">
        <ele>751.888428</ele>
        <time>2011-09-30T16:39:48Z</time>
      </trkpt>
      <trkpt lat="45.96082" lon="6.06574">
        <ele>751.407715</ele>
        <time>2011-09-30T16:39:56Z</time>
      </trkpt>
      <trkpt lat="45.96084" lon="6.06585">
        <ele>751.888428</ele>
        <time>2011-09-30T16:40:04Z</time>
      </trkpt>
      <trkpt lat="45.96085" lon="6.06598">
        <ele>751.888428</ele>
        <time>2011-09-30T16:40:13Z</time>
      </trkpt>
      <trkpt lat="45.96088" lon="6.06608">
        <ele>752.368896</ele>
        <time>2011-09-30T16:40:21Z</time>
      </trkpt>
      <trkpt lat="45.96087" lon="6.06614">
        <ele>752.368896</ele>
        <time>2011-09-30T16:40:27Z</time>
      </trkpt>
      <trkpt lat="45.96089" lon="6.0662">
        <ele>751.407715</ele>
        <time>2011-09-30T16:43:35Z</time>
      </trkpt>
      <trkpt lat="45.96086" lon="6.06626">
        <ele>751.407715</ele>
        <time>2011-09-30T16:43:43Z</time>
      </trkpt>
      <trkpt lat="45.96084" lon="6.06632">
        <ele>751.407715</ele>
        <time>2011-09-30T16:43:49Z</time>
      </trkpt>
      <trkpt lat="45.96082" lon="6.0664">
        <ele>751.407715</ele>
        <time>2011-09-30T16:43:54Z</time>
      </trkpt>
      <trkpt lat="45.96077" lon="6.06648">
        <ele>751.407715</ele>
        <time>2011-09-30T16:44:02Z</time>
      </trkpt>
      <trkpt lat="45.96074" lon="6.06659">
        <ele>751.888428</ele>
        <time>2011-09-30T16:44:10Z</time>
      </trkpt>
      <trkpt lat="45.96073" lon="6.06663">
        <ele>752.368896</ele>
        <time>2011-09-30T16:44:12Z</time>
      </trkpt>
      <trkpt lat="45.96069" lon="6.06677">
        <ele>751.888428</ele>
        <time>2011-09-30T16:44:20Z</time>
      </trkpt>
      <trkpt lat="45.96064" lon="6.06695">
        <ele>750.927002</ele>
        <time>2011-09-30T16:44:30Z</time>
      </trkpt>
      <trkpt lat="45.96062" lon="6.06708">
        <ele>749.96582</ele>
        <time>2011-09-30T16:44:37Z</time>
      </trkpt>
      <trkpt lat="45.9606" lon="6.06715">
        <ele>749.004395</ele>
        <time>2011-09-30T16:44:43Z</time>
      </trkpt>
      <trkpt lat="45.9606" lon="6.06729">
        <ele>748.043213</ele>
        <time>2011-09-30T16:44:51Z</time>
      </trkpt>
      <trkpt lat="45.96062" lon="6.06747">
        <ele>747.081543</ele>
        <time>2011-09-30T16:44:59Z</time>
      </trkpt>
      <trkpt lat="45.96062" lon="6.06764">
        <ele>746.601074</ele>
        <time>2011-09-30T16:45:10Z</time>
      </trkpt>
      <trkpt lat="45.96064" lon="6.06777">
        <ele>746.120361</ele>
        <time>2011-09-30T16:45:19Z</time>
      </trkpt>
      <trkpt lat="45.96064" lon="6.06789">
        <ele>746.120361</ele>
        <time>2011-09-30T16:45:26Z</time>
      </trkpt>
      <trkpt lat="45.96064" lon="6.06798">
        <ele>746.120361</ele>
        <time>2011-09-30T16:45:35Z</time>
      </trkpt>
      <trkpt lat="45.96061" lon="6.06808">
        <ele>746.120361</ele>
        <time>2011-09-30T16:45:43Z</time>
      </trkpt>
      <trkpt lat="45.9606" lon="6.06818">
        <ele>746.120361</ele>
        <time>2011-09-30T16:45:50Z</time>
      </trkpt>
      <trkpt lat="45.96058" lon="6.06832">
        <ele>746.601074</ele>
        <time>2011-09-30T16:45:58Z</time>
      </trkpt>
      <trkpt lat="45.96058" lon="6.06843">
        <ele>746.601074</ele>
        <time>2011-09-30T16:46:05Z</time>
      </trkpt>
      <trkpt lat="45.96055" lon="6.06847">
        <ele>746.601074</ele>
        <time>2011-09-30T16:46:12Z</time>
      </trkpt>
      <trkpt lat="45.96057" lon="6.06861">
        <ele>745.639648</ele>
        <time>2011-09-30T16:46:19Z</time>
      </trkpt>
      <trkpt lat="45.96054" lon="6.06867">
        <ele>747.081543</ele>
        <time>2011-09-30T16:46:26Z</time>
      </trkpt>
      <trkpt lat="45.96056" lon="6.06875">
        <ele>746.601074</ele>
        <time>2011-09-30T16:46:33Z</time>
      </trkpt>
      <trkpt lat="45.96061" lon="6.06885">
        <ele>746.120361</ele>
        <time>2011-09-30T16:46:43Z</time>
      </trkpt>
      <trkpt lat="45.96065" lon="6.06892">
        <ele>746.120361</ele>
        <time>2011-09-30T16:46:50Z</time>
      </trkpt>
      <trkpt lat="45.96062" lon="6.06899">
        <ele>746.120361</ele>
        <time>2011-09-30T16:46:58Z</time>
      </trkpt>
      <trkpt lat="45.96058" lon="6.06905">
        <ele>745.639648</ele>
        <time>2011-09-30T16:47:06Z</time>
      </trkpt>
      <trkpt lat="45.96055" lon="6.06913">
        <ele>745.639648</ele>
        <time>2011-09-30T16:47:16Z</time>
      </trkpt>
      <trkpt lat="45.96053" lon="6.06922">
        <ele>745.639648</ele>
        <time>2011-09-30T16:47:25Z</time>
      </trkpt>
      <trkpt lat="45.96048" lon="6.06932">
        <ele>745.639648</ele>
        <time>2011-09-30T16:47:35Z</time>
      </trkpt>
      <trkpt lat="45.96044" lon="6.06941">
        <ele>745.639648</ele>
        <time>2011-09-30T16:47:44Z</time>
      </trkpt>
      <trkpt lat="45.96038" lon="6.06952">
        <ele>746.120361</ele>
        <time>2011-09-30T16:47:52Z</time>
      </trkpt>
      <trkpt lat="45.96033" lon="6.06959">
        <ele>745.639648</ele>
        <time>2011-09-30T16:48:00Z</time>
      </trkpt>
      <trkpt lat="45.9603" lon="6.06966">
        <ele>746.120361</ele>
        <time>2011-09-30T16:48:06Z</time>
      </trkpt>
      <trkpt lat="45.96028" lon="6.06971">
        <ele>746.120361</ele>
        <time>2011-09-30T16:48:14Z</time>
      </trkpt>
      <trkpt lat="45.96022" lon="6.06976">
        <ele>745.639648</ele>
        <time>2011-09-30T16:48:24Z</time>
      </trkpt>
      <trkpt lat="45.96015" lon="6.06983">
        <ele>745.158936</ele>
        <time>2011-09-30T16:48:34Z</time>
      </trkpt>
      <trkpt lat="45.96011" lon="6.06989">
        <ele>744.197754</ele>
        <time>2011-09-30T16:48:43Z</time>
      </trkpt>
      <trkpt lat="45.96008" lon="6.06995">
        <ele>742.755859</ele>
        <time>2011-09-30T16:48:50Z</time>
      </trkpt>
      <trkpt lat="45.96005" lon="6.07003">
        <ele>741.794434</ele>
        <time>2011-09-30T16:49:01Z</time>
      </trkpt>
      <trkpt lat="45.96003" lon="6.0701">
        <ele>740.833008</ele>
        <time>2011-09-30T16:49:09Z</time>
      </trkpt>
      <trkpt lat="45.96001" lon="6.07019">
        <ele>740.352539</ele>
        <time>2011-09-30T16:49:17Z</time>
      </trkpt>
      <trkpt lat="45.96002" lon="6.07032">
        <ele>739.871826</ele>
        <time>2011-09-30T16:49:26Z</time>
      </trkpt>
      <trkpt lat="45.96" lon="6.07045">
        <ele>738.910645</ele>
        <time>2011-09-30T16:49:36Z</time>
      </trkpt>
      <trkpt lat="45.96002" lon="6.07053">
        <ele>738.429932</ele>
        <time>2011-09-30T16:49:44Z</time>
      </trkpt>
      <trkpt lat="45.96003" lon="6.07062">
        <ele>738.429932</ele>
        <time>2011-09-30T16:49:51Z</time>
      </trkpt>
      <trkpt lat="45.96004" lon="6.07069">
        <ele>738.429932</ele>
        <time>2011-09-30T16:50:00Z</time>
      </trkpt>
      <trkpt lat="45.96006" lon="6.07075">
        <ele>737.949219</ele>
        <time>2011-09-30T16:50:06Z</time>
      </trkpt>
      <trkpt lat="45.9601" lon="6.07086">
        <ele>737.949219</ele>
        <time>2011-09-30T16:50:14Z</time>
      </trkpt>
      <trkpt lat="45.96011" lon="6.07089">
        <ele>737.949219</ele>
        <time>2011-09-30T16:50:16Z</time>
      </trkpt>
      <trkpt lat="45.96016" lon="6.07102">
        <ele>737.468506</ele>
        <time>2011-09-30T16:50:25Z</time>
      </trkpt>
      <trkpt lat="45.9602" lon="6.07114">
        <ele>736.987793</ele>
        <time>2011-09-30T16:50:36Z</time>
      </trkpt>
      <trkpt lat="45.9602" lon="6.07119">
        <ele>736.507324</ele>
        <time>2011-09-30T16:50:41Z</time>
      </trkpt>
      <trkpt lat="45.96017" lon="6.07127">
        <ele>736.026611</ele>
        <time>2011-09-30T16:50:48Z</time>
      </trkpt>
      <trkpt lat="45.96015" lon="6.07133">
        <ele>735.545898</ele>
        <time>2011-09-30T16:50:55Z</time>
      </trkpt>
      <trkpt lat="45.96011" lon="6.07144">
        <ele>735.06543</ele>
        <time>2011-09-30T16:51:03Z</time>
      </trkpt>
      <trkpt lat="45.9601" lon="6.07159">
        <ele>734.104004</ele>
        <time>2011-09-30T16:51:13Z</time>
      </trkpt>
      <trkpt lat="45.96016" lon="6.07177">
        <ele>735.06543</ele>
        <time>2011-09-30T16:51:24Z</time>
      </trkpt>
      <trkpt lat="45.9602" lon="6.07189">
        <ele>734.104004</ele>
        <time>2011-09-30T16:51:33Z</time>
      </trkpt>
      <trkpt lat="45.96028" lon="6.072">
        <ele>733.623291</ele>
        <time>2011-09-30T16:51:42Z</time>
      </trkpt>
      <trkpt lat="45.96035" lon="6.0721">
        <ele>731.700439</ele>
        <time>2011-09-30T16:51:52Z</time>
      </trkpt>
      <trkpt lat="45.96035" lon="6.07217">
        <ele>730.258545</ele>
        <time>2011-09-30T16:52:00Z</time>
      </trkpt>
      <trkpt lat="45.96033" lon="6.07228">
        <ele>728.81665</ele>
        <time>2011-09-30T16:52:09Z</time>
      </trkpt>
      <trkpt lat="45.96032" lon="6.07236">
        <ele>727.855225</ele>
        <time>2011-09-30T16:52:15Z</time>
      </trkpt>
      <trkpt lat="45.96036" lon="6.0725">
        <ele>726.894043</ele>
        <time>2011-09-30T16:52:24Z</time>
      </trkpt>
      <trkpt lat="45.96039" lon="6.07263">
        <ele>726.41333</ele>
        <time>2011-09-30T16:52:32Z</time>
      </trkpt>
      <trkpt lat="45.96042" lon="6.07281">
        <ele>725.932617</ele>
        <time>2011-09-30T16:52:41Z</time>
      </trkpt>
      <trkpt lat="45.96049" lon="6.07294">
        <ele>724.971436</ele>
        <time>2011-09-30T16:52:52Z</time>
      </trkpt>
      <trkpt lat="45.96052" lon="6.07305">
        <ele>724.971436</ele>
        <time>2011-09-30T16:53:02Z</time>
      </trkpt>
      <trkpt lat="45.96055" lon="6.07311">
        <ele>724.01001</ele>
        <time>2011-09-30T16:53:35Z</time>
      </trkpt>
    </trkseg>
  </trk>
</gpx>